QTR909 YSSY-OTHH
Flight info
| Callsign | QTR909 |
|---|---|
| Flight time | N/A |
| Altitude | 34000 |
| Route | KADOM A576 PKS J141 LEC DCT MUKIN DCT KADBA DCT GULUM DCT 21S124E DCT LOTVI DCT OKIBU DCT 17S114E DCT TANEM N509 MALBI DCT 11S102E/N0499F360 10S100E 0730S09500E DCT PIBED DCT 04S088E DCT KADAP DCT LAVOX/N0493F380 DCT BIBGO L894 KITAL/N0491F400 P570 EMURU N563 SODEX DCT UMIBU/N0506F340 P899 TOVOX |
| Aircraft | A35K/H-SDE2E3GHIJ3J4J5LM1ORWXY/LB1D1 |
Departure
| Time | 2026-04-23 11:54 |
|---|---|
| Airport | Sydney Kingsford Smith International Airport (YSSY) |
Arrival
| Time | N/A |
|---|---|
| Airport | Hamad International Airport (OTHH) |
| Time | Latitude | Longitude | Altitude | Speed | Heading |
|---|---|---|---|---|---|
| 2026-04-23 11:12 | -33.94016 | 151.16617 | 36 ft | 0 kts | 344° |
| 2026-04-23 11:42 | -33.94031 | 151.16622 | 35 ft | 2 kts | 349° |
| 2026-04-23 11:43 | -33.94059 | 151.16626 | 34 ft | 4 kts | 1° |
| 2026-04-23 11:43 | -33.94085 | 151.16624 | 34 ft | 4 kts | 17° |
| 2026-04-23 11:43 | -33.94106 | 151.16612 | 35 ft | 4 kts | 41° |
| 2026-04-23 11:43 | -33.94120 | 151.16594 | 33 ft | 2 kts | 73° |
| 2026-04-23 11:44 | -33.94120 | 151.16591 | 33 ft | 5 kts | 74° |
| 2026-04-23 11:47 | -33.94119 | 151.16596 | 33 ft | 2 kts | 74° |
| 2026-04-23 11:47 | -33.94114 | 151.16620 | 34 ft | 4 kts | 74° |
| 2026-04-23 11:48 | -33.94104 | 151.16661 | 33 ft | 7 kts | 74° |
| 2026-04-23 11:48 | -33.94090 | 151.16724 | 34 ft | 9 kts | 74° |
| 2026-04-23 11:48 | -33.94070 | 151.16805 | 36 ft | 11 kts | 74° |
| 2026-04-23 11:48 | -33.94047 | 151.16902 | 35 ft | 13 kts | 74° |
| 2026-04-23 11:49 | -33.94020 | 151.17016 | 35 ft | 15 kts | 74° |
| 2026-04-23 11:49 | -33.93990 | 151.17142 | 35 ft | 17 kts | 74° |
| 2026-04-23 11:49 | -33.93903 | 151.17206 | 34 ft | 17 kts | 354° |
| 2026-04-23 11:49 | -33.93782 | 151.17175 | 34 ft | 19 kts | 347° |
| 2026-04-23 11:50 | -33.93649 | 151.17141 | 35 ft | 20 kts | 348° |
| 2026-04-23 11:50 | -33.93503 | 151.17103 | 35 ft | 22 kts | 348° |
| 2026-04-23 11:50 | -33.93351 | 151.17057 | 35 ft | 23 kts | 334° |
| 2026-04-23 11:50 | -33.93219 | 151.16953 | 35 ft | 23 kts | 347° |
| 2026-04-23 11:51 | -33.93082 | 151.16916 | 36 ft | 19 kts | 347° |
| 2026-04-23 11:51 | -33.92991 | 151.16958 | 36 ft | 13 kts | 58° |
| 2026-04-23 11:51 | -33.92970 | 151.17031 | 36 ft | 0 kts | 77° |
| 2026-04-23 11:53 | -33.92969 | 151.17035 | 36 ft | 4 kts | 77° |
| 2026-04-23 11:53 | -33.93019 | 151.17185 | 36 ft | 38 kts | 157° |
| 2026-04-23 11:54 | -33.93417 | 151.17286 | 33 ft | 86 kts | 168° |
| 2026-04-23 11:54 | -33.94203 | 151.17490 | 36 ft | 144 kts | 168° |
| 2026-04-23 11:54 | -33.95311 | 151.17795 | 317 ft | 169 kts | 166° |
| 2026-04-23 11:54 | -33.96455 | 151.18003 | 1027 ft | 167 kts | 176° |
| 2026-04-23 11:55 | -33.97708 | 151.17909 | 1359 ft | 194 kts | 183° |
| 2026-04-23 11:55 | -33.99128 | 151.17770 | 1836 ft | 211 kts | 182° |
| 2026-04-23 11:55 | -34.00581 | 151.17657 | 2388 ft | 216 kts | 181° |
| 2026-04-23 11:55 | -34.02146 | 151.17569 | 2670 ft | 227 kts | 179° |
| 2026-04-23 11:56 | -34.03749 | 151.17825 | 2881 ft | 241 kts | 164° |
| 2026-04-23 11:56 | -34.05386 | 151.18368 | 3269 ft | 249 kts | 162° |
| 2026-04-23 11:56 | -34.07088 | 151.18953 | 3768 ft | 253 kts | 162° |
| 2026-04-23 11:56 | -34.08768 | 151.19523 | 4260 ft | 256 kts | 163° |
| 2026-04-23 11:57 | -34.10496 | 151.20105 | 4751 ft | 260 kts | 163° |
| 2026-04-23 11:57 | -34.12250 | 151.20700 | 5276 ft | 263 kts | 162° |
| 2026-04-23 11:57 | -34.14013 | 151.21288 | 5780 ft | 266 kts | 162° |
| 2026-04-23 11:57 | -34.15808 | 151.21885 | 6355 ft | 267 kts | 162° |
| 2026-04-23 11:58 | -34.17620 | 151.22421 | 6925 ft | 270 kts | 169° |
| 2026-04-23 11:58 | -34.19503 | 151.22399 | 7437 ft | 276 kts | 190° |
| 2026-04-23 11:58 | -34.21285 | 151.21476 | 7995 ft | 282 kts | 213° |
| 2026-04-23 11:58 | -34.22710 | 151.19840 | 8541 ft | 286 kts | 227° |
| 2026-04-23 11:59 | -34.23997 | 151.17988 | 9094 ft | 289 kts | 229° |
| 2026-04-23 11:59 | -34.25062 | 151.15910 | 9613 ft | 295 kts | 246° |
| 2026-04-23 11:59 | -34.25469 | 151.13460 | 10138 ft | 302 kts | 270° |
| 2026-04-23 11:59 | -34.25154 | 151.10934 | 10462 ft | 312 kts | 284° |
| 2026-04-23 12:00 | -34.24526 | 151.08361 | 10845 ft | 322 kts | 290° |
| 2026-04-23 12:00 | -34.23403 | 151.06048 | 11165 ft | 330 kts | 313° |
| 2026-04-23 12:00 | -34.21538 | 151.04381 | 11630 ft | 331 kts | 338° |
| 2026-04-23 12:00 | -34.19363 | 151.03629 | 12134 ft | 331 kts | 352° |
| 2026-04-23 12:01 | -34.17082 | 151.03129 | 12649 ft | 334 kts | 352° |
| 2026-04-23 12:01 | -34.14785 | 151.02628 | 13150 ft | 338 kts | 352° |
| 2026-04-23 12:01 | -34.12460 | 151.02107 | 13673 ft | 341 kts | 352° |
| 2026-04-23 12:01 | -34.10121 | 151.01549 | 14166 ft | 345 kts | 348° |
| 2026-04-23 12:02 | -34.07791 | 151.00785 | 14632 ft | 348 kts | 346° |
| 2026-04-23 12:02 | -34.05460 | 150.99970 | 15085 ft | 351 kts | 346° |
| 2026-04-23 12:02 | -34.03102 | 150.99160 | 15533 ft | 353 kts | 346° |
| 2026-04-23 12:02 | -34.00759 | 150.98224 | 15964 ft | 357 kts | 336° |
| 2026-04-23 12:03 | -33.98683 | 150.96570 | 16370 ft | 361 kts | 315° |
| 2026-04-23 12:03 | -33.97165 | 150.94149 | 16566 ft | 368 kts | 296° |
| 2026-04-23 12:03 | -33.96022 | 150.91330 | 16801 ft | 378 kts | 293° |
| 2026-04-23 12:03 | -33.94888 | 150.88427 | 17032 ft | 387 kts | 294° |
| 2026-04-23 12:04 | -33.93713 | 150.85465 | 17260 ft | 397 kts | 294° |
| 2026-04-23 12:04 | -33.92518 | 150.82486 | 17489 ft | 406 kts | 294° |
| 2026-04-23 12:04 | -33.91258 | 150.79362 | 17721 ft | 416 kts | 294° |
| 2026-04-23 12:04 | -33.89979 | 150.76202 | 17937 ft | 425 kts | 294° |
| 2026-04-23 12:05 | -33.88670 | 150.72976 | 18169 ft | 433 kts | 294° |
| 2026-04-23 12:05 | -33.87337 | 150.69696 | 18539 ft | 438 kts | 294° |
| 2026-04-23 12:05 | -33.85992 | 150.66393 | 18951 ft | 441 kts | 294° |
| 2026-04-23 12:05 | -33.84639 | 150.63071 | 19340 ft | 443 kts | 294° |
| 2026-04-23 12:06 | -33.83278 | 150.59734 | 19742 ft | 446 kts | 294° |
| 2026-04-23 12:06 | -33.81908 | 150.56379 | 20175 ft | 448 kts | 294° |
| 2026-04-23 12:06 | -33.79143 | 150.49615 | 21046 ft | 453 kts | 294° |
| 2026-04-23 12:07 | -33.77751 | 150.46215 | 21491 ft | 455 kts | 294° |
| 2026-04-23 12:07 | -33.76348 | 150.42792 | 21932 ft | 457 kts | 294° |
| 2026-04-23 12:07 | -33.74954 | 150.39393 | 22374 ft | 460 kts | 295° |
| 2026-04-23 12:07 | -33.73537 | 150.35942 | 22806 ft | 462 kts | 295° |
| 2026-04-23 12:08 | -33.72104 | 150.32455 | 23251 ft | 465 kts | 294° |
| 2026-04-23 12:08 | -33.70804 | 150.28891 | 23664 ft | 467 kts | 289° |
| 2026-04-23 12:08 | -33.69689 | 150.25210 | 24092 ft | 468 kts | 287° |
| 2026-04-23 12:08 | -33.68660 | 150.21486 | 24444 ft | 471 kts | 286° |
| 2026-04-23 12:09 | -33.67678 | 150.17780 | 24805 ft | 473 kts | 286° |
| 2026-04-23 12:09 | -33.67012 | 150.15242 | 25046 ft | 475 kts | 286° |
| 2026-04-23 12:09 | -33.66020 | 150.11476 | 25400 ft | 477 kts | 286° |
| 2026-04-23 12:09 | -33.65000 | 150.07651 | 25766 ft | 479 kts | 286° |
| 2026-04-23 12:10 | -33.63974 | 150.03845 | 26128 ft | 481 kts | 287° |
| 2026-04-23 12:10 | -33.62930 | 150.00011 | 26456 ft | 483 kts | 287° |
| 2026-04-23 12:10 | -33.61876 | 149.96163 | 26788 ft | 486 kts | 287° |
| 2026-04-23 12:10 | -33.60816 | 149.92305 | 27141 ft | 488 kts | 287° |
| 2026-04-23 12:11 | -33.59749 | 149.88428 | 27498 ft | 489 kts | 287° |
| 2026-04-23 12:11 | -33.58693 | 149.84596 | 27811 ft | 491 kts | 287° |
| 2026-04-23 12:11 | -33.57616 | 149.80692 | 28137 ft | 494 kts | 287° |
| 2026-04-23 12:11 | -33.56534 | 149.76771 | 28421 ft | 496 kts | 287° |
| 2026-04-23 12:12 | -33.54354 | 149.68890 | 28496 ft | 498 kts | 287° |
| 2026-04-23 12:12 | -33.52171 | 149.61014 | 28496 ft | 498 kts | 287° |
| 2026-04-23 12:13 | -33.49980 | 149.53137 | 28494 ft | 498 kts | 287° |
| 2026-04-23 12:13 | -33.47796 | 149.45303 | 28487 ft | 498 kts | 286° |
| 2026-04-23 12:14 | -33.45595 | 149.37427 | 28490 ft | 499 kts | 286° |
| 2026-04-23 12:14 | -33.43388 | 149.29556 | 28485 ft | 499 kts | 286° |
| 2026-04-23 12:15 | -33.41170 | 149.21667 | 28475 ft | 499 kts | 286° |
| 2026-04-23 12:15 | -33.38949 | 149.13790 | 28469 ft | 500 kts | 286° |
| 2026-04-23 12:16 | -33.36724 | 149.05918 | 28463 ft | 500 kts | 285° |
| 2026-04-23 12:16 | -33.34489 | 148.98028 | 28459 ft | 501 kts | 285° |
| 2026-04-23 12:17 | -33.32260 | 148.90184 | 28455 ft | 501 kts | 285° |
| 2026-04-23 12:17 | -33.30015 | 148.82308 | 28444 ft | 501 kts | 285° |
| 2026-04-23 12:18 | -33.27759 | 148.74413 | 28442 ft | 501 kts | 285° |
| 2026-04-23 12:18 | -33.25498 | 148.66520 | 28437 ft | 502 kts | 285° |
| 2026-04-23 12:19 | -33.23227 | 148.58618 | 28437 ft | 503 kts | 285° |
| 2026-04-23 12:19 | -33.20950 | 148.50714 | 28429 ft | 503 kts | 285° |
| 2026-04-23 12:20 | -33.18665 | 148.42805 | 28428 ft | 504 kts | 285° |
| 2026-04-23 12:20 | -33.16390 | 148.34949 | 28434 ft | 504 kts | 284° |
| 2026-04-23 12:21 | -33.14090 | 148.27032 | 28426 ft | 504 kts | 285° |
| 2026-04-23 12:21 | -33.11894 | 148.19091 | 28416 ft | 502 kts | 281° |
| 2026-04-23 12:22 | -33.10220 | 148.10993 | 28634 ft | 503 kts | 278° |
| 2026-04-23 12:22 | -33.09438 | 148.06973 | 28928 ft | 505 kts | 278° |
| 2026-04-23 12:22 | -33.08624 | 148.02894 | 29222 ft | 507 kts | 278° |
| 2026-04-23 12:23 | -33.07784 | 147.98811 | 29617 ft | 506 kts | 279° |
| 2026-04-23 12:23 | -33.06928 | 147.94760 | 30037 ft | 505 kts | 279° |
| 2026-04-23 12:23 | -33.06054 | 147.90690 | 30379 ft | 505 kts | 279° |
| 2026-04-23 12:23 | -33.05176 | 147.86633 | 30705 ft | 505 kts | 279° |
| 2026-04-23 12:24 | -33.04296 | 147.82584 | 30984 ft | 505 kts | 279° |
| 2026-04-23 12:24 | -33.03415 | 147.78533 | 31261 ft | 504 kts | 279° |
| 2026-04-23 12:24 | -33.02533 | 147.74487 | 31548 ft | 504 kts | 279° |
| 2026-04-23 12:24 | -33.01651 | 147.70440 | 31829 ft | 503 kts | 279° |
| 2026-04-23 12:25 | -33.00770 | 147.66403 | 32091 ft | 503 kts | 279° |
| 2026-04-23 12:25 | -32.99891 | 147.62377 | 32344 ft | 502 kts | 279° |
| 2026-04-23 12:25 | -32.99010 | 147.58347 | 32575 ft | 502 kts | 279° |
| 2026-04-23 12:25 | -32.98126 | 147.54310 | 32810 ft | 502 kts | 279° |
| 2026-04-23 12:26 | -32.97245 | 147.50291 | 33052 ft | 502 kts | 279° |
| 2026-04-23 12:26 | -32.96372 | 147.46320 | 33269 ft | 502 kts | 279° |
| 2026-04-23 12:26 | -32.95489 | 147.42309 | 33502 ft | 501 kts | 279° |
| 2026-04-23 12:26 | -32.94604 | 147.38296 | 33732 ft | 500 kts | 279° |
| 2026-04-23 12:27 | -32.93725 | 147.34316 | 33930 ft | 500 kts | 279° |
| 2026-04-23 12:27 | -32.92832 | 147.30281 | 34140 ft | 500 kts | 279° |
| 2026-04-23 12:27 | -32.91945 | 147.26276 | 34332 ft | 500 kts | 279° |
| 2026-04-23 12:27 | -32.91056 | 147.22264 | 34403 ft | 503 kts | 279° |
| 2026-04-23 12:28 | -32.89258 | 147.14166 | 34397 ft | 508 kts | 279° |
| 2026-04-23 12:28 | -32.87443 | 147.06047 | 34388 ft | 506 kts | 279° |
| 2026-04-23 12:29 | -32.85636 | 146.97991 | 34399 ft | 507 kts | 279° |
| 2026-04-23 12:29 | -32.83816 | 146.89889 | 34385 ft | 507 kts | 279° |
| 2026-04-23 12:30 | -32.81992 | 146.81800 | 34393 ft | 507 kts | 279° |
| 2026-04-23 12:30 | -32.80170 | 146.73745 | 34391 ft | 507 kts | 279° |
| 2026-04-23 12:31 | -32.78332 | 146.65642 | 34392 ft | 507 kts | 279° |
| 2026-04-23 12:31 | -32.76492 | 146.57563 | 34392 ft | 507 kts | 279° |
| 2026-04-23 12:32 | -32.74644 | 146.49470 | 34388 ft | 507 kts | 279° |
| 2026-04-23 12:32 | -32.72796 | 146.41403 | 34385 ft | 507 kts | 279° |
| 2026-04-23 12:33 | -32.70934 | 146.33303 | 34385 ft | 506 kts | 279° |
| 2026-04-23 12:33 | -32.69259 | 146.26038 | 34387 ft | 507 kts | 279° |
| 2026-04-23 12:34 | -32.67413 | 146.18056 | 34384 ft | 506 kts | 279° |
| 2026-04-23 12:34 | -32.65543 | 146.09998 | 34385 ft | 506 kts | 279° |
| 2026-04-23 12:35 | -32.63669 | 146.01945 | 34396 ft | 506 kts | 280° |
| 2026-04-23 12:35 | -32.61790 | 145.93898 | 34375 ft | 506 kts | 280° |
| 2026-04-23 12:36 | -32.59908 | 145.85863 | 34384 ft | 506 kts | 280° |
| 2026-04-23 12:36 | -32.58029 | 145.77862 | 34380 ft | 505 kts | 280° |
| 2026-04-23 12:37 | -32.56138 | 145.69840 | 34373 ft | 505 kts | 280° |
| 2026-04-23 12:37 | -32.54246 | 145.61835 | 34374 ft | 505 kts | 280° |
| 2026-04-23 12:38 | -32.52343 | 145.53813 | 34373 ft | 505 kts | 280° |
| 2026-04-23 12:38 | -32.50435 | 145.45791 | 34369 ft | 505 kts | 280° |
| 2026-04-23 12:39 | -32.48529 | 145.37804 | 34371 ft | 504 kts | 280° |
| 2026-04-23 12:39 | -32.46631 | 145.29870 | 34368 ft | 504 kts | 281° |
| 2026-04-23 12:40 | -32.44712 | 145.21877 | 34366 ft | 504 kts | 281° |
| 2026-04-23 12:40 | -32.42789 | 145.13895 | 34364 ft | 503 kts | 281° |
| 2026-04-23 12:41 | -32.40865 | 145.05928 | 34361 ft | 503 kts | 281° |
| 2026-04-23 12:41 | -32.38934 | 144.97956 | 34361 ft | 503 kts | 281° |
| 2026-04-23 12:42 | -32.37000 | 144.89997 | 34357 ft | 503 kts | 281° |
| 2026-04-23 12:42 | -32.35063 | 144.82052 | 34360 ft | 502 kts | 281° |
| 2026-04-23 12:43 | -32.33121 | 144.74108 | 34356 ft | 502 kts | 281° |
| 2026-04-23 12:43 | -32.31191 | 144.66235 | 34355 ft | 502 kts | 281° |
| 2026-04-23 12:44 | -32.29240 | 144.58302 | 34357 ft | 502 kts | 281° |
| 2026-04-23 12:44 | -32.27288 | 144.50389 | 34355 ft | 501 kts | 281° |
| 2026-04-23 12:45 | -32.25335 | 144.42495 | 34351 ft | 501 kts | 281° |
| 2026-04-23 12:45 | -32.23372 | 144.34582 | 34351 ft | 501 kts | 282° |
| 2026-04-23 12:46 | -32.21421 | 144.26744 | 34346 ft | 500 kts | 282° |
| 2026-04-23 12:46 | -32.19456 | 144.18869 | 34345 ft | 500 kts | 282° |
| 2026-04-23 12:47 | -32.17480 | 144.10975 | 34346 ft | 500 kts | 282° |
| 2026-04-23 12:47 | -32.15517 | 144.03155 | 34342 ft | 499 kts | 282° |
| 2026-04-23 12:48 | -32.13526 | 143.95247 | 34344 ft | 499 kts | 282° |
| 2026-04-23 12:48 | -32.11561 | 143.87460 | 34342 ft | 499 kts | 282° |
| 2026-04-23 12:49 | -32.09566 | 143.79583 | 34344 ft | 499 kts | 282° |
| 2026-04-23 12:49 | -32.07573 | 143.71733 | 34339 ft | 498 kts | 282° |
| 2026-04-23 12:50 | -32.05594 | 143.63962 | 34342 ft | 498 kts | 282° |
| 2026-04-23 12:50 | -32.03597 | 143.56142 | 34350 ft | 498 kts | 282° |
| 2026-04-23 12:51 | -32.01595 | 143.48325 | 34340 ft | 498 kts | 282° |
| 2026-04-23 12:51 | -31.99589 | 143.40513 | 34331 ft | 498 kts | 283° |
| 2026-04-23 12:52 | -31.97580 | 143.32719 | 34331 ft | 498 kts | 283° |
| 2026-04-23 12:52 | -31.95559 | 143.24901 | 34332 ft | 498 kts | 283° |
| 2026-04-23 12:53 | -31.93539 | 143.17108 | 34333 ft | 497 kts | 283° |
| 2026-04-23 12:53 | -31.91515 | 143.09317 | 34331 ft | 497 kts | 283° |
| 2026-04-23 12:54 | -31.89488 | 143.01540 | 34331 ft | 497 kts | 283° |
| 2026-04-23 12:54 | -31.87478 | 142.93847 | 34330 ft | 497 kts | 283° |
| 2026-04-23 12:55 | -31.85440 | 142.86068 | 34331 ft | 496 kts | 283° |
| 2026-04-23 12:55 | -31.83404 | 142.78318 | 34331 ft | 496 kts | 283° |
| 2026-04-23 12:56 | -31.81364 | 142.70574 | 34330 ft | 496 kts | 283° |
| 2026-04-23 12:56 | -31.79316 | 142.62823 | 34333 ft | 495 kts | 283° |
| 2026-04-23 12:57 | -31.77268 | 142.55091 | 34334 ft | 495 kts | 283° |
| 2026-04-23 12:57 | -31.75239 | 142.47451 | 34333 ft | 495 kts | 283° |
| 2026-04-23 12:58 | -31.73173 | 142.39695 | 34330 ft | 495 kts | 283° |
| 2026-04-23 12:58 | -31.71111 | 142.31972 | 34330 ft | 494 kts | 283° |
| 2026-04-23 12:59 | -31.69394 | 142.25562 | 34328 ft | 494 kts | 283° |
| 2026-04-23 12:59 | -31.67330 | 142.17871 | 34328 ft | 494 kts | 283° |
| 2026-04-23 13:00 | -31.65270 | 142.10215 | 34324 ft | 493 kts | 283° |
| 2026-04-23 13:00 | -31.63206 | 142.02565 | 34328 ft | 493 kts | 283° |
| 2026-04-23 13:01 | -31.61129 | 141.94887 | 34326 ft | 493 kts | 284° |
| 2026-04-23 13:01 | -31.59046 | 141.87209 | 34330 ft | 493 kts | 283° |
| 2026-04-23 13:02 | -31.56969 | 141.79570 | 34331 ft | 492 kts | 284° |
| 2026-04-23 13:02 | -31.54881 | 141.71912 | 34325 ft | 492 kts | 284° |
| 2026-04-23 13:03 | -31.52793 | 141.64272 | 34324 ft | 492 kts | 284° |
| 2026-04-23 13:03 | -31.50710 | 141.56676 | 34320 ft | 492 kts | 284° |
| 2026-04-23 13:04 | -31.48613 | 141.49046 | 34317 ft | 492 kts | 284° |
| 2026-04-23 13:04 | -31.46511 | 141.41418 | 34320 ft | 492 kts | 284° |
| 2026-04-23 13:05 | -31.44402 | 141.33782 | 34314 ft | 492 kts | 284° |
| 2026-04-23 13:05 | -31.42302 | 141.26204 | 34333 ft | 492 kts | 284° |
| 2026-04-23 13:06 | -31.39128 | 141.14778 | 34307 ft | 491 kts | 284° |
| 2026-04-23 13:07 | -31.37007 | 141.07172 | 34311 ft | 491 kts | 284° |
| 2026-04-23 13:07 | -31.34901 | 140.99636 | 34299 ft | 491 kts | 284° |
| 2026-04-23 13:08 | -31.32751 | 140.91998 | 34308 ft | 491 kts | 284° |
| 2026-04-23 13:08 | -31.30603 | 140.84411 | 34299 ft | 490 kts | 284° |
| 2026-04-23 13:09 | -31.28473 | 140.76903 | 34302 ft | 490 kts | 284° |
| 2026-04-23 13:09 | -31.26321 | 140.69332 | 34299 ft | 490 kts | 284° |
| 2026-04-23 13:10 | -31.24170 | 140.61779 | 34299 ft | 489 kts | 284° |
| 2026-04-23 13:10 | -31.22015 | 140.54236 | 34293 ft | 489 kts | 284° |
| 2026-04-23 13:11 | -31.19858 | 140.46702 | 34301 ft | 489 kts | 284° |
| 2026-04-23 13:11 | -31.17700 | 140.39180 | 34285 ft | 488 kts | 284° |
| 2026-04-23 13:12 | -31.15549 | 140.31705 | 34289 ft | 488 kts | 284° |
| 2026-04-23 13:12 | -31.13380 | 140.24186 | 34291 ft | 487 kts | 284° |
| 2026-04-23 13:13 | -31.11214 | 140.16691 | 34291 ft | 487 kts | 284° |
| 2026-04-23 13:13 | -31.09044 | 140.09206 | 34291 ft | 487 kts | 284° |
| 2026-04-23 13:14 | -31.06870 | 140.01722 | 34290 ft | 487 kts | 284° |
| 2026-04-23 13:14 | -31.04692 | 139.94243 | 34289 ft | 486 kts | 285° |
| 2026-04-23 13:15 | -31.02512 | 139.86778 | 34292 ft | 486 kts | 285° |
| 2026-04-23 13:15 | -31.00327 | 139.79313 | 34288 ft | 486 kts | 285° |
| 2026-04-23 13:16 | -30.98154 | 139.71906 | 34289 ft | 486 kts | 285° |
| 2026-04-23 13:16 | -30.95968 | 139.64472 | 34287 ft | 486 kts | 285° |
| 2026-04-23 13:17 | -30.93766 | 139.57004 | 34289 ft | 486 kts | 285° |
| 2026-04-23 13:17 | -30.91568 | 139.49564 | 34288 ft | 485 kts | 285° |
| 2026-04-23 13:18 | -30.89367 | 139.42134 | 34293 ft | 485 kts | 285° |
| 2026-04-23 13:18 | -30.87165 | 139.34720 | 34292 ft | 485 kts | 285° |
| 2026-04-23 13:19 | -30.84973 | 139.27354 | 34298 ft | 484 kts | 285° |
| 2026-04-23 13:19 | -30.82763 | 139.19946 | 34301 ft | 484 kts | 285° |
| 2026-04-23 13:20 | -30.80562 | 139.12588 | 34303 ft | 483 kts | 285° |
| 2026-04-23 13:20 | -30.78351 | 139.05211 | 34306 ft | 482 kts | 286° |
| 2026-04-23 13:21 | -30.76156 | 138.97906 | 34308 ft | 482 kts | 286° |
| 2026-04-23 13:21 | -30.73921 | 138.90479 | 34307 ft | 481 kts | 286° |
| 2026-04-23 13:22 | -30.71702 | 138.83127 | 34305 ft | 481 kts | 286° |
| 2026-04-23 13:22 | -30.69483 | 138.75795 | 34308 ft | 480 kts | 286° |
| 2026-04-23 13:23 | -30.67280 | 138.68533 | 34308 ft | 479 kts | 286° |
| 2026-04-23 13:23 | -30.65056 | 138.61220 | 34311 ft | 479 kts | 286° |
| 2026-04-23 13:24 | -30.62837 | 138.53932 | 34302 ft | 478 kts | 286° |
| 2026-04-23 13:24 | -30.60550 | 138.46676 | 34304 ft | 479 kts | 290° |
| 2026-04-23 13:25 | -30.57134 | 138.40003 | 34298 ft | 484 kts | 302° |
| 2026-04-23 13:25 | -30.53054 | 138.33737 | 34298 ft | 486 kts | 304° |
| 2026-04-23 13:26 | -30.48910 | 138.27614 | 34292 ft | 486 kts | 304° |
| 2026-04-23 13:26 | -30.44758 | 138.21441 | 34291 ft | 485 kts | 303° |
| 2026-04-23 13:27 | -30.40629 | 138.15256 | 34290 ft | 485 kts | 303° |
| 2026-04-23 13:27 | -30.36515 | 138.09082 | 34288 ft | 484 kts | 303° |
| 2026-04-23 13:28 | -30.32395 | 138.02907 | 34286 ft | 484 kts | 303° |
| 2026-04-23 13:28 | -30.28277 | 137.96749 | 34283 ft | 484 kts | 303° |
| 2026-04-23 13:29 | -30.24151 | 137.90590 | 34288 ft | 483 kts | 303° |
| 2026-04-23 13:29 | -30.20061 | 137.84493 | 34280 ft | 483 kts | 303° |
| 2026-04-23 13:30 | -30.15937 | 137.78356 | 34281 ft | 482 kts | 303° |
| 2026-04-23 13:30 | -30.11815 | 137.72231 | 34277 ft | 482 kts | 303° |
| 2026-04-23 13:31 | -30.07725 | 137.66163 | 34279 ft | 481 kts | 303° |
| 2026-04-23 13:31 | -30.03605 | 137.60059 | 34275 ft | 481 kts | 303° |
| 2026-04-23 13:32 | -29.99486 | 137.53966 | 34271 ft | 481 kts | 303° |
| 2026-04-23 13:32 | -29.95392 | 137.47919 | 34272 ft | 481 kts | 303° |
| 2026-04-23 13:33 | -29.91266 | 137.41834 | 34288 ft | 481 kts | 303° |
| 2026-04-23 13:33 | -29.87135 | 137.35751 | 34271 ft | 481 kts | 303° |
| 2026-04-23 13:34 | -29.83003 | 137.29676 | 34262 ft | 482 kts | 303° |
| 2026-04-23 13:34 | -29.78873 | 137.23614 | 34278 ft | 482 kts | 303° |
| 2026-04-23 13:35 | -29.74722 | 137.17528 | 34258 ft | 482 kts | 303° |
| 2026-04-23 13:35 | -29.70582 | 137.11469 | 34269 ft | 482 kts | 303° |
| 2026-04-23 13:36 | -29.66434 | 137.05407 | 34261 ft | 482 kts | 303° |
| 2026-04-23 13:36 | -29.62306 | 136.99383 | 34261 ft | 482 kts | 303° |
| 2026-04-23 13:37 | -29.58146 | 136.93320 | 34265 ft | 482 kts | 304° |
| 2026-04-23 13:37 | -29.53982 | 136.87261 | 34258 ft | 483 kts | 304° |
| 2026-04-23 13:38 | -29.49819 | 136.81212 | 34266 ft | 483 kts | 304° |
| 2026-04-23 13:38 | -29.45649 | 136.75161 | 34258 ft | 483 kts | 304° |
| 2026-04-23 13:39 | -29.41509 | 136.69164 | 34258 ft | 483 kts | 304° |
| 2026-04-23 13:39 | -29.37339 | 136.63133 | 34254 ft | 482 kts | 304° |
| 2026-04-23 13:40 | -29.33162 | 136.57100 | 34255 ft | 482 kts | 304° |
| 2026-04-23 13:40 | -29.28990 | 136.51082 | 34256 ft | 482 kts | 304° |
| 2026-04-23 13:41 | -29.24814 | 136.45070 | 34252 ft | 481 kts | 304° |
| 2026-04-23 13:41 | -29.20658 | 136.39094 | 34256 ft | 481 kts | 304° |
| 2026-04-23 13:42 | -29.16474 | 136.33087 | 34253 ft | 481 kts | 304° |
| 2026-04-23 13:42 | -29.12308 | 136.27113 | 34252 ft | 480 kts | 304° |
| 2026-04-23 13:43 | -29.08160 | 136.21174 | 34251 ft | 480 kts | 304° |
| 2026-04-23 13:43 | -29.03990 | 136.15212 | 34252 ft | 479 kts | 304° |
| 2026-04-23 13:44 | -28.99821 | 136.09262 | 34251 ft | 479 kts | 304° |
| 2026-04-23 13:44 | -28.95661 | 136.03331 | 34248 ft | 478 kts | 303° |
| 2026-04-23 13:45 | -28.92196 | 135.98399 | 34250 ft | 478 kts | 303° |
| 2026-04-23 13:45 | -28.87180 | 135.91651 | 34248 ft | 481 kts | 307° |
| 2026-04-23 13:46 | -28.82569 | 135.86114 | 34248 ft | 481 kts | 308° |
| 2026-04-23 13:46 | -28.78727 | 135.81578 | 34242 ft | 481 kts | 308° |
| 2026-04-23 13:47 | -28.74054 | 135.76064 | 34248 ft | 480 kts | 308° |
| 2026-04-23 13:47 | -28.69412 | 135.70576 | 34249 ft | 480 kts | 308° |
| 2026-04-23 13:48 | -28.64815 | 135.65140 | 34245 ft | 479 kts | 308° |
| 2026-04-23 13:48 | -28.60188 | 135.59675 | 34250 ft | 479 kts | 307° |
| 2026-04-23 13:49 | -28.55565 | 135.54224 | 34254 ft | 478 kts | 307° |
| 2026-04-23 13:49 | -28.50952 | 135.48792 | 34240 ft | 478 kts | 307° |
| 2026-04-23 13:50 | -28.46322 | 135.43348 | 34243 ft | 477 kts | 307° |
| 2026-04-23 13:50 | -28.41734 | 135.37960 | 34241 ft | 477 kts | 307° |
| 2026-04-23 13:51 | -28.37087 | 135.32511 | 34247 ft | 476 kts | 307° |
| 2026-04-23 13:51 | -28.32514 | 135.27155 | 34243 ft | 475 kts | 307° |
| 2026-04-23 13:52 | -28.27915 | 135.21776 | 34240 ft | 474 kts | 307° |
| 2026-04-23 13:52 | -28.23321 | 135.16409 | 34243 ft | 473 kts | 307° |
| 2026-04-23 13:53 | -28.18741 | 135.11066 | 34242 ft | 472 kts | 307° |
| 2026-04-23 13:53 | -28.14159 | 135.05728 | 34255 ft | 471 kts | 307° |
| 2026-04-23 13:54 | -28.09590 | 135.00411 | 34253 ft | 470 kts | 307° |
| 2026-04-23 13:54 | -28.05056 | 134.95142 | 34246 ft | 469 kts | 307° |
| 2026-04-23 13:55 | -27.95603 | 134.84177 | 34244 ft | 468 kts | 307° |
| 2026-04-23 13:56 | -27.91061 | 134.78921 | 34240 ft | 468 kts | 307° |
| 2026-04-23 13:56 | -27.86507 | 134.73656 | 34243 ft | 467 kts | 307° |
| 2026-04-23 13:57 | -27.81963 | 134.68411 | 34242 ft | 466 kts | 307° |
| 2026-04-23 13:57 | -27.77451 | 134.63208 | 34242 ft | 466 kts | 307° |
| 2026-04-23 13:58 | -27.72916 | 134.57985 | 34244 ft | 465 kts | 307° |
| 2026-04-23 13:58 | -27.68373 | 134.52761 | 34246 ft | 465 kts | 307° |
| 2026-04-23 13:59 | -27.63844 | 134.47559 | 34244 ft | 465 kts | 307° |
| 2026-04-23 13:59 | -27.59311 | 134.42359 | 34241 ft | 464 kts | 307° |
| 2026-04-23 14:00 | -27.55539 | 134.38036 | 34237 ft | 464 kts | 307° |
| 2026-04-23 14:00 | -27.50267 | 134.32002 | 34236 ft | 464 kts | 307° |
| 2026-04-23 14:01 | -27.45848 | 134.26951 | 34234 ft | 464 kts | 307° |
| 2026-04-23 14:01 | -27.41313 | 134.21773 | 34237 ft | 464 kts | 307° |
| 2026-04-23 14:02 | -27.36788 | 134.16613 | 34238 ft | 463 kts | 307° |
| 2026-04-23 14:02 | -27.32283 | 134.11481 | 34234 ft | 463 kts | 307° |
| 2026-04-23 14:03 | -27.27752 | 134.06329 | 34234 ft | 463 kts | 307° |
| 2026-04-23 14:03 | -27.23214 | 134.01173 | 34234 ft | 463 kts | 307° |
| 2026-04-23 14:04 | -27.18685 | 133.96034 | 34233 ft | 463 kts | 307° |
| 2026-04-23 14:04 | -27.14144 | 133.90887 | 34226 ft | 463 kts | 307° |
| 2026-04-23 14:05 | -27.09605 | 133.85749 | 34228 ft | 463 kts | 307° |
| 2026-04-23 14:05 | -27.05065 | 133.80619 | 34231 ft | 463 kts | 307° |
| 2026-04-23 14:06 | -27.00526 | 133.75495 | 34230 ft | 463 kts | 307° |
| 2026-04-23 14:06 | -26.95991 | 133.70381 | 34228 ft | 462 kts | 307° |
| 2026-04-23 14:07 | -26.91473 | 133.65293 | 34228 ft | 462 kts | 307° |
| 2026-04-23 14:07 | -26.84652 | 133.57621 | 34229 ft | 462 kts | 307° |
| 2026-04-23 14:08 | -26.80139 | 133.52553 | 34231 ft | 462 kts | 307° |
| 2026-04-23 14:08 | -26.75586 | 133.47447 | 34231 ft | 462 kts | 307° |
| 2026-04-23 14:09 | -26.71038 | 133.42352 | 34232 ft | 463 kts | 307° |
| 2026-04-23 14:09 | -26.66488 | 133.37262 | 34227 ft | 463 kts | 307° |
| 2026-04-23 14:10 | -26.61929 | 133.32166 | 34229 ft | 463 kts | 307° |
| 2026-04-23 14:10 | -26.57376 | 133.27084 | 34236 ft | 463 kts | 307° |
| 2026-04-23 14:11 | -26.52813 | 133.21997 | 34226 ft | 463 kts | 307° |
| 2026-04-23 14:11 | -26.48239 | 133.16904 | 34228 ft | 464 kts | 307° |
| 2026-04-23 14:12 | -26.43699 | 133.11855 | 34229 ft | 464 kts | 307° |
| 2026-04-23 14:12 | -26.39123 | 133.06771 | 34230 ft | 464 kts | 307° |
| 2026-04-23 14:13 | -26.35308 | 133.02537 | 34227 ft | 464 kts | 307° |
| 2026-04-23 14:13 | -26.30728 | 132.97460 | 34228 ft | 465 kts | 307° |
| 2026-04-23 14:14 | -26.26140 | 132.92382 | 34229 ft | 465 kts | 307° |
| 2026-04-23 14:14 | -26.21616 | 132.87259 | 34225 ft | 460 kts | 303° |
| 2026-04-23 14:15 | -26.17748 | 132.81658 | 34223 ft | 455 kts | 299° |
| 2026-04-23 14:15 | -26.14038 | 132.75954 | 34222 ft | 454 kts | 298° |
| 2026-04-23 14:16 | -26.10352 | 132.70242 | 34223 ft | 454 kts | 298° |
| 2026-04-23 14:16 | -26.06654 | 132.64541 | 34226 ft | 454 kts | 298° |
| 2026-04-23 14:17 | -26.02978 | 132.58897 | 34219 ft | 453 kts | 298° |
| 2026-04-23 14:17 | -25.99269 | 132.53215 | 34221 ft | 453 kts | 298° |
| 2026-04-23 14:18 | -25.95576 | 132.47562 | 34239 ft | 452 kts | 298° |
| 2026-04-23 14:18 | -25.91880 | 132.41911 | 34216 ft | 451 kts | 299° |
| 2026-04-23 14:19 | -25.88186 | 132.36269 | 34232 ft | 451 kts | 299° |
| 2026-04-23 14:19 | -25.84497 | 132.30643 | 34226 ft | 451 kts | 299° |
| 2026-04-23 14:20 | -25.80830 | 132.25055 | 34217 ft | 450 kts | 299° |
| 2026-04-23 14:20 | -25.77145 | 132.19447 | 34218 ft | 449 kts | 299° |
| 2026-04-23 14:21 | -25.73459 | 132.13846 | 34216 ft | 449 kts | 299° |
| 2026-04-23 14:21 | -25.69779 | 132.08259 | 34210 ft | 448 kts | 299° |
| 2026-04-23 14:22 | -25.66101 | 132.02682 | 34210 ft | 448 kts | 299° |
| 2026-04-23 14:22 | -25.62424 | 131.97115 | 34210 ft | 447 kts | 299° |
| 2026-04-23 14:23 | -25.58748 | 131.91554 | 34210 ft | 447 kts | 299° |
| 2026-04-23 14:23 | -25.55069 | 131.85996 | 34205 ft | 447 kts | 300° |
| 2026-04-23 14:24 | -25.51413 | 131.80478 | 34206 ft | 447 kts | 300° |
| 2026-04-23 14:24 | -25.47726 | 131.74922 | 34197 ft | 447 kts | 300° |
| 2026-04-23 14:25 | -25.44042 | 131.69376 | 34199 ft | 447 kts | 300° |
| 2026-04-23 14:25 | -25.40356 | 131.63832 | 34198 ft | 447 kts | 300° |
| 2026-04-23 14:26 | -25.36664 | 131.58288 | 34197 ft | 447 kts | 300° |
| 2026-04-23 14:26 | -25.32960 | 131.52731 | 34192 ft | 448 kts | 300° |
| 2026-04-23 14:27 | -25.29288 | 131.47230 | 34189 ft | 448 kts | 300° |
| 2026-04-23 14:27 | -25.25588 | 131.41693 | 34187 ft | 448 kts | 300° |
| 2026-04-23 14:28 | -25.21881 | 131.36151 | 34182 ft | 448 kts | 300° |
| 2026-04-23 14:28 | -25.18176 | 131.30619 | 34181 ft | 448 kts | 301° |
| 2026-04-23 14:29 | -25.14462 | 131.25081 | 34179 ft | 448 kts | 301° |
| 2026-04-23 14:29 | -25.10751 | 131.19551 | 34174 ft | 448 kts | 301° |
| 2026-04-23 14:30 | -25.07034 | 131.14021 | 34172 ft | 449 kts | 301° |
| 2026-04-23 14:30 | -25.03318 | 131.08499 | 34173 ft | 448 kts | 301° |
| 2026-04-23 14:31 | -24.99597 | 131.02975 | 34166 ft | 448 kts | 301° |
| 2026-04-23 14:31 | -24.95902 | 130.97497 | 34160 ft | 448 kts | 301° |
| 2026-04-23 14:32 | -24.92184 | 130.91990 | 34169 ft | 447 kts | 301° |
| 2026-04-23 14:32 | -24.88460 | 130.86480 | 34162 ft | 447 kts | 301° |
| 2026-04-23 14:33 | -24.84736 | 130.80977 | 34156 ft | 447 kts | 301° |
| 2026-04-23 14:33 | -24.81013 | 130.75482 | 34158 ft | 448 kts | 301° |
| 2026-04-23 14:34 | -24.77312 | 130.70026 | 34160 ft | 448 kts | 301° |
| 2026-04-23 14:34 | -24.73585 | 130.64537 | 34152 ft | 448 kts | 301° |
| 2026-04-23 14:35 | -24.69855 | 130.59050 | 34151 ft | 448 kts | 301° |
| 2026-04-23 14:35 | -24.66120 | 130.53561 | 34153 ft | 448 kts | 302° |
| 2026-04-23 14:36 | -24.62378 | 130.48070 | 34150 ft | 448 kts | 302° |
| 2026-04-23 14:36 | -24.58641 | 130.42592 | 34164 ft | 449 kts | 302° |
| 2026-04-23 14:37 | -24.54888 | 130.37095 | 34139 ft | 449 kts | 302° |
| 2026-04-23 14:37 | -24.51159 | 130.31641 | 34136 ft | 449 kts | 302° |
| 2026-04-23 14:38 | -24.47401 | 130.26151 | 34153 ft | 449 kts | 302° |
| 2026-04-23 14:38 | -24.43645 | 130.20669 | 34131 ft | 449 kts | 302° |
| 2026-04-23 14:39 | -24.39881 | 130.15182 | 34148 ft | 450 kts | 302° |
| 2026-04-23 14:39 | -24.36120 | 130.09705 | 34142 ft | 450 kts | 302° |
| 2026-04-23 14:40 | -24.32372 | 130.04253 | 34137 ft | 450 kts | 302° |
| 2026-04-23 14:40 | -24.28600 | 129.98772 | 34139 ft | 450 kts | 302° |
| 2026-04-23 14:41 | -24.24820 | 129.93288 | 34133 ft | 450 kts | 302° |
| 2026-04-23 14:41 | -24.21043 | 129.87812 | 34134 ft | 451 kts | 302° |
| 2026-04-23 14:42 | -24.17258 | 129.82331 | 34132 ft | 451 kts | 302° |
| 2026-04-23 14:42 | -24.13473 | 129.76855 | 34130 ft | 451 kts | 302° |
| 2026-04-23 14:43 | -24.09700 | 129.71405 | 34131 ft | 451 kts | 302° |
| 2026-04-23 14:43 | -24.05909 | 129.65933 | 34129 ft | 451 kts | 302° |
| 2026-04-23 14:44 | -24.02114 | 129.60462 | 34125 ft | 451 kts | 303° |
| 2026-04-23 14:44 | -23.98312 | 129.54987 | 34129 ft | 451 kts | 303° |
| 2026-04-23 14:45 | -23.94558 | 129.49586 | 34127 ft | 452 kts | 303° |
| 2026-04-23 14:45 | -23.90760 | 129.44128 | 34126 ft | 452 kts | 303° |
| 2026-04-23 14:46 | -23.86950 | 129.38660 | 34125 ft | 452 kts | 303° |
| 2026-04-23 14:46 | -23.83144 | 129.33203 | 34122 ft | 452 kts | 303° |
| 2026-04-23 14:47 | -23.79329 | 129.27739 | 34118 ft | 452 kts | 303° |
| 2026-04-23 14:47 | -23.75513 | 129.22279 | 34119 ft | 452 kts | 303° |
| 2026-04-23 14:48 | -23.71709 | 129.16843 | 34112 ft | 452 kts | 303° |
| 2026-04-23 14:48 | -23.67901 | 129.11408 | 34112 ft | 453 kts | 303° |
| 2026-04-23 14:49 | -23.64076 | 129.05952 | 34109 ft | 453 kts | 303° |
| 2026-04-23 14:49 | -23.60249 | 129.00501 | 34105 ft | 453 kts | 303° |
| 2026-04-23 14:50 | -23.56429 | 128.95066 | 34109 ft | 453 kts | 303° |
| 2026-04-23 14:50 | -23.52609 | 128.89635 | 34095 ft | 452 kts | 303° |
| 2026-04-23 14:51 | -23.48750 | 128.84156 | 34105 ft | 452 kts | 303° |
| 2026-04-23 14:51 | -23.44923 | 128.78729 | 34101 ft | 452 kts | 303° |
| 2026-04-23 14:52 | -23.41094 | 128.73303 | 34099 ft | 452 kts | 303° |
| 2026-04-23 14:52 | -23.37256 | 128.67872 | 34091 ft | 452 kts | 303° |
| 2026-04-23 14:53 | -23.33452 | 128.62493 | 34092 ft | 452 kts | 303° |
| 2026-04-23 14:53 | -23.29601 | 128.57054 | 34093 ft | 452 kts | 303° |
| 2026-04-23 14:54 | -23.25759 | 128.51633 | 34094 ft | 452 kts | 303° |
| 2026-04-23 14:54 | -23.22052 | 128.46137 | 34095 ft | 449 kts | 298° |
| 2026-04-23 14:55 | -23.19058 | 128.40218 | 34091 ft | 448 kts | 295° |
| 2026-04-23 14:55 | -23.16197 | 128.34215 | 34090 ft | 448 kts | 294° |
| 2026-04-23 14:56 | -23.13341 | 128.28182 | 34095 ft | 448 kts | 295° |
| 2026-04-23 14:56 | -23.10481 | 128.22177 | 34089 ft | 448 kts | 295° |
| 2026-04-23 14:57 | -23.07597 | 128.16147 | 34088 ft | 449 kts | 295° |
| 2026-04-23 14:57 | -23.04727 | 128.10159 | 34088 ft | 449 kts | 295° |
| 2026-04-23 14:58 | -23.01839 | 128.04139 | 34087 ft | 449 kts | 295° |
| 2026-04-23 14:58 | -22.98964 | 127.98153 | 34086 ft | 450 kts | 295° |
| 2026-04-23 14:59 | -22.96055 | 127.92104 | 34085 ft | 450 kts | 295° |
| 2026-04-23 14:59 | -22.93159 | 127.86089 | 34085 ft | 450 kts | 295° |
| 2026-04-23 15:00 | -22.90260 | 127.80074 | 34079 ft | 450 kts | 295° |
| 2026-04-23 15:00 | -22.87372 | 127.74089 | 34085 ft | 450 kts | 295° |
| 2026-04-23 15:01 | -22.84466 | 127.68076 | 34074 ft | 450 kts | 295° |
| 2026-04-23 15:01 | -22.81562 | 127.62074 | 34077 ft | 450 kts | 295° |
| 2026-04-23 15:02 | -22.78644 | 127.56048 | 34084 ft | 451 kts | 295° |
| 2026-04-23 15:02 | -22.75734 | 127.50047 | 34071 ft | 452 kts | 295° |
| 2026-04-23 15:03 | -22.73293 | 127.45019 | 34070 ft | 452 kts | 295° |
| 2026-04-23 15:03 | -22.70367 | 127.38998 | 34072 ft | 452 kts | 295° |
| 2026-04-23 15:04 | -22.67436 | 127.32973 | 34068 ft | 453 kts | 295° |
| 2026-04-23 15:04 | -22.64499 | 127.26947 | 34068 ft | 453 kts | 295° |
| 2026-04-23 15:05 | -22.61542 | 127.20883 | 34073 ft | 453 kts | 295° |
| 2026-04-23 15:05 | -22.58601 | 127.14861 | 34067 ft | 453 kts | 295° |
| 2026-04-23 15:06 | -22.55662 | 127.08849 | 34067 ft | 454 kts | 295° |
| 2026-04-23 15:06 | -22.52716 | 127.02832 | 34065 ft | 454 kts | 295° |
| 2026-04-23 15:07 | -22.49759 | 126.96797 | 34066 ft | 454 kts | 296° |
| 2026-04-23 15:07 | -22.46803 | 126.90772 | 34062 ft | 454 kts | 296° |
| 2026-04-23 15:08 | -22.43827 | 126.84716 | 34063 ft | 454 kts | 296° |
| 2026-04-23 15:09 | -22.39393 | 126.75702 | 34059 ft | 455 kts | 296° |
| 2026-04-23 15:09 | -22.36405 | 126.69638 | 34059 ft | 455 kts | 296° |
| 2026-04-23 15:10 | -22.33439 | 126.63625 | 34058 ft | 455 kts | 296° |
| 2026-04-23 15:10 | -22.30475 | 126.57623 | 34054 ft | 455 kts | 296° |
| 2026-04-23 15:11 | -22.27487 | 126.51580 | 34053 ft | 455 kts | 296° |
| 2026-04-23 15:11 | -22.24501 | 126.45548 | 34051 ft | 455 kts | 296° |
| 2026-04-23 15:12 | -22.21510 | 126.39513 | 34041 ft | 455 kts | 296° |
| 2026-04-23 15:12 | -22.18526 | 126.33498 | 34045 ft | 455 kts | 296° |
| 2026-04-23 15:13 | -22.15541 | 126.27490 | 34042 ft | 455 kts | 296° |
| 2026-04-23 15:13 | -22.12550 | 126.21475 | 34050 ft | 455 kts | 296° |
| 2026-04-23 15:14 | -22.09556 | 126.15462 | 34048 ft | 455 kts | 296° |
| 2026-04-23 15:14 | -22.06564 | 126.09460 | 34046 ft | 455 kts | 296° |
| 2026-04-23 15:15 | -22.03566 | 126.03453 | 34038 ft | 455 kts | 296° |
| 2026-04-23 15:15 | -22.00564 | 125.97444 | 34042 ft | 455 kts | 296° |
| 2026-04-23 15:16 | -21.97564 | 125.91448 | 34042 ft | 455 kts | 296° |
| 2026-04-23 15:16 | -21.94559 | 125.85447 | 34037 ft | 455 kts | 296° |
| 2026-04-23 15:17 | -21.91538 | 125.79422 | 34040 ft | 455 kts | 296° |
| 2026-04-23 15:17 | -21.88535 | 125.73437 | 34038 ft | 456 kts | 297° |
| 2026-04-23 15:18 | -21.85513 | 125.67425 | 34039 ft | 455 kts | 297° |
| 2026-04-23 15:18 | -21.82496 | 125.61427 | 34035 ft | 455 kts | 297° |
| 2026-04-23 15:19 | -21.79494 | 125.55468 | 34037 ft | 455 kts | 297° |
| 2026-04-23 15:19 | -21.76475 | 125.49480 | 34031 ft | 455 kts | 297° |
| 2026-04-23 15:20 | -21.73465 | 125.43517 | 34031 ft | 455 kts | 297° |
| 2026-04-23 15:20 | -21.70447 | 125.37545 | 34033 ft | 454 kts | 297° |
| 2026-04-23 15:21 | -21.67426 | 125.31574 | 34028 ft | 454 kts | 297° |
| 2026-04-23 15:21 | -21.64407 | 125.25613 | 34028 ft | 454 kts | 297° |
| 2026-04-23 15:22 | -21.61386 | 125.19656 | 34028 ft | 454 kts | 297° |
| 2026-04-23 15:22 | -21.58367 | 125.13710 | 34027 ft | 454 kts | 297° |
| 2026-04-23 15:23 | -21.55348 | 125.07767 | 34020 ft | 453 kts | 297° |
| 2026-04-23 15:23 | -21.52331 | 125.01838 | 34022 ft | 453 kts | 297° |
| 2026-04-23 15:24 | -21.49305 | 124.95897 | 34020 ft | 453 kts | 297° |
| 2026-04-23 15:24 | -21.46285 | 124.89974 | 34021 ft | 453 kts | 297° |
| 2026-04-23 15:25 | -21.43262 | 124.84051 | 34021 ft | 453 kts | 297° |
| 2026-04-23 15:25 | -21.40225 | 124.78109 | 34021 ft | 454 kts | 297° |
| 2026-04-23 15:26 | -21.37194 | 124.72185 | 34018 ft | 454 kts | 297° |
| 2026-04-23 15:26 | -21.34159 | 124.66260 | 34020 ft | 454 kts | 298° |
| 2026-04-23 15:27 | -21.31100 | 124.60294 | 34015 ft | 454 kts | 298° |
| 2026-04-23 15:27 | -21.28056 | 124.54361 | 34012 ft | 454 kts | 298° |
| 2026-04-23 15:28 | -21.25008 | 124.48430 | 34014 ft | 455 kts | 298° |
| 2026-04-23 15:28 | -21.21954 | 124.42494 | 34017 ft | 455 kts | 298° |
| 2026-04-23 15:29 | -21.18905 | 124.36572 | 34018 ft | 455 kts | 298° |
| 2026-04-23 15:29 | -21.15836 | 124.30618 | 34014 ft | 456 kts | 298° |
| 2026-04-23 15:30 | -21.12772 | 124.24681 | 34012 ft | 456 kts | 298° |
| 2026-04-23 15:30 | -21.09707 | 124.18749 | 34013 ft | 456 kts | 298° |
| 2026-04-23 15:31 | -21.06636 | 124.12812 | 34015 ft | 457 kts | 298° |
| 2026-04-23 15:31 | -21.03542 | 124.06837 | 34017 ft | 457 kts | 298° |
| 2026-04-23 15:32 | -21.00475 | 124.00921 | 34008 ft | 457 kts | 298° |
| 2026-04-23 15:32 | -20.97552 | 123.94876 | 34010 ft | 457 kts | 295° |
| 2026-04-23 15:33 | -20.94948 | 123.88682 | 34005 ft | 458 kts | 294° |
| 2026-04-23 15:33 | -20.92337 | 123.82480 | 34007 ft | 458 kts | 295° |
| 2026-04-23 15:34 | -20.89661 | 123.76287 | 34007 ft | 459 kts | 295° |
| 2026-04-23 15:34 | -20.86951 | 123.70095 | 34006 ft | 459 kts | 295° |
| 2026-04-23 15:35 | -20.84249 | 123.63938 | 34004 ft | 459 kts | 295° |
| 2026-04-23 15:35 | -20.81532 | 123.57747 | 34004 ft | 460 kts | 295° |
| 2026-04-23 15:36 | -20.78818 | 123.51567 | 34003 ft | 460 kts | 295° |
| 2026-04-23 15:36 | -20.76101 | 123.45386 | 34001 ft | 460 kts | 295° |
| 2026-04-23 15:37 | -20.73375 | 123.39192 | 33998 ft | 461 kts | 295° |
| 2026-04-23 15:37 | -20.71093 | 123.34011 | 33998 ft | 461 kts | 295° |
| 2026-04-23 15:38 | -20.67914 | 123.26803 | 33996 ft | 461 kts | 296° |
| 2026-04-23 15:38 | -20.65160 | 123.20567 | 33993 ft | 462 kts | 296° |
| 2026-04-23 15:39 | -20.62437 | 123.14409 | 33993 ft | 462 kts | 296° |
| 2026-04-23 15:39 | -20.59680 | 123.08183 | 33993 ft | 462 kts | 296° |
| 2026-04-23 15:40 | -20.56946 | 123.02012 | 33996 ft | 462 kts | 296° |
| 2026-04-23 15:40 | -20.54199 | 122.95822 | 33992 ft | 462 kts | 296° |
| 2026-04-23 15:41 | -20.51441 | 122.89614 | 33992 ft | 462 kts | 296° |
| 2026-04-23 15:41 | -20.48687 | 122.83421 | 33992 ft | 463 kts | 296° |
| 2026-04-23 15:42 | -20.45926 | 122.77220 | 33990 ft | 463 kts | 296° |
| 2026-04-23 15:42 | -20.43170 | 122.71037 | 33985 ft | 463 kts | 296° |
| 2026-04-23 15:43 | -20.40407 | 122.64847 | 33986 ft | 463 kts | 296° |
| 2026-04-23 15:43 | -20.37639 | 122.58651 | 33986 ft | 463 kts | 296° |
| 2026-04-23 15:44 | -20.34877 | 122.52478 | 33982 ft | 463 kts | 296° |
| 2026-04-23 15:44 | -20.32105 | 122.46289 | 33986 ft | 463 kts | 296° |
| 2026-04-23 15:45 | -20.29325 | 122.40088 | 33982 ft | 463 kts | 296° |
| 2026-04-23 15:45 | -20.26543 | 122.33891 | 33984 ft | 463 kts | 296° |
| 2026-04-23 15:46 | -20.23764 | 122.27706 | 33980 ft | 463 kts | 296° |
| 2026-04-23 15:46 | -20.20986 | 122.21530 | 33979 ft | 463 kts | 296° |
| 2026-04-23 15:47 | -20.18205 | 122.15354 | 33979 ft | 463 kts | 296° |
| 2026-04-23 15:47 | -20.15414 | 122.09165 | 33982 ft | 463 kts | 296° |
| 2026-04-23 15:48 | -20.12627 | 122.02990 | 33974 ft | 463 kts | 296° |
| 2026-04-23 15:48 | -20.09834 | 121.96810 | 33978 ft | 464 kts | 296° |
| 2026-04-23 15:49 | -20.07037 | 121.90630 | 33976 ft | 464 kts | 296° |
| 2026-04-23 15:49 | -20.04253 | 121.84483 | 33977 ft | 464 kts | 296° |
| 2026-04-23 15:50 | -20.01440 | 121.78279 | 33975 ft | 464 kts | 296° |
| 2026-04-23 15:50 | -19.98647 | 121.72125 | 33986 ft | 464 kts | 296° |
| 2026-04-23 15:51 | -19.95847 | 121.65964 | 33966 ft | 464 kts | 296° |
| 2026-04-23 15:51 | -19.93041 | 121.59797 | 33970 ft | 464 kts | 296° |
| 2026-04-23 15:52 | -19.90217 | 121.53597 | 33968 ft | 464 kts | 297° |
| 2026-04-23 15:52 | -19.87430 | 121.47484 | 33969 ft | 464 kts | 296° |
| 2026-04-23 15:53 | -19.84608 | 121.41303 | 33966 ft | 464 kts | 297° |
| 2026-04-23 15:53 | -19.81785 | 121.35125 | 33978 ft | 464 kts | 297° |
| 2026-04-23 15:54 | -19.79118 | 121.28886 | 33964 ft | 465 kts | 294° |
| 2026-04-23 15:54 | -19.76665 | 121.22525 | 33983 ft | 465 kts | 293° |
| 2026-04-23 15:55 | -19.74218 | 121.16218 | 33961 ft | 465 kts | 294° |
| 2026-04-23 15:55 | -19.72119 | 121.10920 | 33963 ft | 465 kts | 294° |
| 2026-04-23 15:56 | -19.69177 | 121.03563 | 33961 ft | 466 kts | 294° |
| 2026-04-23 15:56 | -19.66640 | 120.97239 | 33979 ft | 466 kts | 294° |
| 2026-04-23 15:57 | -19.64528 | 120.91975 | 33977 ft | 466 kts | 294° |
| 2026-04-23 15:57 | -19.61990 | 120.85650 | 33971 ft | 466 kts | 294° |
| 2026-04-23 15:58 | -19.59450 | 120.79329 | 33964 ft | 466 kts | 294° |
| 2026-04-23 15:58 | -19.56910 | 120.73015 | 33967 ft | 466 kts | 294° |
| 2026-04-23 15:59 | -19.54365 | 120.66695 | 33972 ft | 466 kts | 294° |
| 2026-04-23 15:59 | -19.51820 | 120.60385 | 33965 ft | 466 kts | 294° |
| 2026-04-23 16:00 | -19.49271 | 120.54072 | 33970 ft | 466 kts | 294° |
| 2026-04-23 16:00 | -19.46712 | 120.47741 | 33969 ft | 466 kts | 294° |
| 2026-04-23 16:01 | -19.44167 | 120.41452 | 33967 ft | 466 kts | 294° |
| 2026-04-23 16:01 | -19.41603 | 120.35124 | 33966 ft | 466 kts | 294° |
| 2026-04-23 16:02 | -19.39047 | 120.28823 | 33961 ft | 466 kts | 294° |
| 2026-04-23 16:02 | -19.36484 | 120.22511 | 33971 ft | 466 kts | 294° |
| 2026-04-23 16:03 | -19.33935 | 120.16241 | 33966 ft | 466 kts | 294° |
| 2026-04-23 16:03 | -19.31365 | 120.09926 | 33969 ft | 467 kts | 294° |
| 2026-04-23 16:04 | -19.28791 | 120.03610 | 33967 ft | 467 kts | 294° |
| 2026-04-23 16:04 | -19.26219 | 119.97306 | 33960 ft | 467 kts | 295° |
| 2026-04-23 16:05 | -19.24076 | 119.92057 | 33964 ft | 467 kts | 295° |
| 2026-04-23 16:05 | -19.21062 | 119.84687 | 33964 ft | 467 kts | 295° |
| 2026-04-23 16:06 | -19.18481 | 119.78380 | 33956 ft | 467 kts | 295° |
| 2026-04-23 16:06 | -19.15894 | 119.72069 | 33971 ft | 467 kts | 295° |
| 2026-04-23 16:07 | -19.13310 | 119.65772 | 33969 ft | 467 kts | 295° |
| 2026-04-23 16:07 | -19.10727 | 119.59482 | 33966 ft | 467 kts | 295° |
| 2026-04-23 16:08 | -19.08145 | 119.53207 | 33964 ft | 466 kts | 295° |
| 2026-04-23 16:08 | -19.05562 | 119.46931 | 33964 ft | 466 kts | 295° |
| 2026-04-23 16:09 | -19.02974 | 119.40653 | 33968 ft | 466 kts | 295° |
| 2026-04-23 16:09 | -19.00385 | 119.34378 | 33959 ft | 466 kts | 295° |
| 2026-04-23 16:10 | -18.97802 | 119.28128 | 33962 ft | 466 kts | 295° |
| 2026-04-23 16:10 | -18.95199 | 119.21833 | 33955 ft | 467 kts | 295° |
| 2026-04-23 16:11 | -18.92605 | 119.15568 | 33963 ft | 467 kts | 295° |
| 2026-04-23 16:11 | -18.90001 | 119.09285 | 33965 ft | 467 kts | 295° |
| 2026-04-23 16:12 | -18.87380 | 119.02970 | 33966 ft | 467 kts | 295° |
| 2026-04-23 16:12 | -18.84781 | 118.96713 | 33960 ft | 468 kts | 295° |
| 2026-04-23 16:13 | -18.82161 | 118.90415 | 33965 ft | 468 kts | 295° |
| 2026-04-23 16:13 | -18.78236 | 118.80990 | 33963 ft | 468 kts | 295° |
| 2026-04-23 16:14 | -18.75606 | 118.74684 | 33962 ft | 469 kts | 295° |
| 2026-04-23 16:14 | -18.72978 | 118.68389 | 33964 ft | 469 kts | 295° |
| 2026-04-23 16:15 | -18.70346 | 118.62093 | 33969 ft | 470 kts | 295° |
| 2026-04-23 16:15 | -18.67724 | 118.55827 | 33958 ft | 470 kts | 295° |
| 2026-04-23 16:16 | -18.65078 | 118.49512 | 33964 ft | 471 kts | 295° |
| 2026-04-23 16:16 | -18.62420 | 118.43173 | 33963 ft | 471 kts | 295° |
| 2026-04-23 16:17 | -18.59784 | 118.36896 | 33964 ft | 472 kts | 295° |
| 2026-04-23 16:17 | -18.57122 | 118.30561 | 33963 ft | 472 kts | 295° |
| 2026-04-23 16:18 | -18.54456 | 118.24226 | 33958 ft | 472 kts | 295° |
| 2026-04-23 16:18 | -18.51804 | 118.17932 | 33959 ft | 473 kts | 295° |
| 2026-04-23 16:19 | -18.49125 | 118.11579 | 33965 ft | 473 kts | 295° |
| 2026-04-23 16:19 | -18.46457 | 118.05258 | 33961 ft | 473 kts | 295° |
| 2026-04-23 16:20 | -18.43781 | 117.98925 | 33961 ft | 474 kts | 295° |
| 2026-04-23 16:20 | -18.41107 | 117.92606 | 33954 ft | 474 kts | 295° |
| 2026-04-23 16:21 | -18.38410 | 117.86239 | 33959 ft | 475 kts | 295° |
| 2026-04-23 16:21 | -18.35714 | 117.79882 | 33957 ft | 475 kts | 295° |
| 2026-04-23 16:22 | -18.33031 | 117.73561 | 33960 ft | 475 kts | 295° |
| 2026-04-23 16:22 | -18.30344 | 117.67237 | 33959 ft | 476 kts | 295° |
| 2026-04-23 16:23 | -18.27627 | 117.60850 | 33958 ft | 476 kts | 295° |
| 2026-04-23 16:23 | -18.24929 | 117.54516 | 33958 ft | 477 kts | 295° |
| 2026-04-23 16:24 | -18.22227 | 117.48178 | 33954 ft | 477 kts | 295° |
| 2026-04-23 16:24 | -18.19509 | 117.41810 | 33960 ft | 477 kts | 295° |
| 2026-04-23 16:25 | -18.16795 | 117.35460 | 33963 ft | 477 kts | 295° |
| 2026-04-23 16:25 | -18.14404 | 117.28932 | 33961 ft | 478 kts | 290° |
| 2026-04-23 16:26 | -18.12294 | 117.22285 | 33956 ft | 478 kts | 289° |
| 2026-04-23 16:26 | -18.10164 | 117.15724 | 33965 ft | 478 kts | 290° |
| 2026-04-23 16:27 | -18.07944 | 117.09110 | 33966 ft | 478 kts | 290° |
| 2026-04-23 16:27 | -18.05701 | 117.02513 | 33964 ft | 479 kts | 290° |
| 2026-04-23 16:28 | -18.03472 | 116.95974 | 33964 ft | 479 kts | 290° |
| 2026-04-23 16:28 | -18.01228 | 116.89385 | 33962 ft | 479 kts | 290° |
| 2026-04-23 16:29 | -17.98972 | 116.82766 | 33961 ft | 479 kts | 290° |
| 2026-04-23 16:29 | -17.96722 | 116.76170 | 33962 ft | 480 kts | 290° |
| 2026-04-23 16:30 | -17.94484 | 116.69619 | 33961 ft | 480 kts | 290° |
| 2026-04-23 16:30 | -17.92225 | 116.63017 | 33964 ft | 480 kts | 290° |
| 2026-04-23 16:31 | -17.89967 | 116.56422 | 33964 ft | 480 kts | 290° |
| 2026-04-23 16:31 | -17.87705 | 116.49826 | 33960 ft | 480 kts | 290° |
| 2026-04-23 16:32 | -17.85437 | 116.43219 | 33961 ft | 481 kts | 290° |
| 2026-04-23 16:32 | -17.83177 | 116.36644 | 33963 ft | 481 kts | 290° |
| 2026-04-23 16:33 | -17.80898 | 116.30022 | 33956 ft | 481 kts | 290° |
| 2026-04-23 16:33 | -17.78624 | 116.23426 | 33961 ft | 482 kts | 290° |
| 2026-04-23 16:34 | -17.76342 | 116.16810 | 33952 ft | 482 kts | 290° |
| 2026-04-23 16:34 | -17.74111 | 116.10354 | 33959 ft | 482 kts | 290° |
| 2026-04-23 16:35 | -17.71824 | 116.03739 | 33962 ft | 482 kts | 290° |
| 2026-04-23 16:35 | -17.69539 | 115.97142 | 33962 ft | 482 kts | 290° |
| 2026-04-23 16:36 | -17.67247 | 115.90531 | 33961 ft | 482 kts | 290° |
| 2026-04-23 16:36 | -17.64960 | 115.83943 | 33959 ft | 482 kts | 290° |
| 2026-04-23 16:37 | -17.62668 | 115.77346 | 33960 ft | 482 kts | 290° |
| 2026-04-23 16:37 | -17.60367 | 115.70733 | 33963 ft | 482 kts | 290° |
| 2026-04-23 16:38 | -17.58067 | 115.64133 | 33965 ft | 482 kts | 290° |
| 2026-04-23 16:38 | -17.55768 | 115.57541 | 33955 ft | 482 kts | 290° |
| 2026-04-23 16:39 | -17.53459 | 115.50930 | 33963 ft | 482 kts | 290° |
| 2026-04-23 16:39 | -17.51153 | 115.44336 | 33958 ft | 482 kts | 290° |
| 2026-04-23 16:40 | -17.48847 | 115.37747 | 33959 ft | 482 kts | 290° |
| 2026-04-23 16:40 | -17.46539 | 115.31164 | 33958 ft | 482 kts | 290° |
| 2026-04-23 16:41 | -17.44226 | 115.24572 | 33957 ft | 482 kts | 290° |
| 2026-04-23 16:41 | -17.41915 | 115.17995 | 33956 ft | 482 kts | 290° |
| 2026-04-23 16:42 | -17.39587 | 115.11374 | 33952 ft | 482 kts | 290° |
| 2026-04-23 16:42 | -17.37271 | 115.04800 | 33957 ft | 483 kts | 290° |
| 2026-04-23 16:43 | -17.34953 | 114.98224 | 33955 ft | 477 kts | 290° |
| 2026-04-23 16:43 | -17.32682 | 114.91788 | 33953 ft | 470 kts | 291° |
| 2026-04-23 16:44 | -17.30409 | 114.85356 | 33958 ft | 469 kts | 291° |
| 2026-04-23 16:44 | -17.28146 | 114.78958 | 33952 ft | 469 kts | 291° |
| 2026-04-23 16:45 | -17.25885 | 114.72575 | 33950 ft | 469 kts | 291° |
| 2026-04-23 16:45 | -17.23623 | 114.66197 | 33952 ft | 469 kts | 291° |
| 2026-04-23 16:46 | -17.21358 | 114.59817 | 33954 ft | 468 kts | 291° |
| 2026-04-23 16:46 | -17.19094 | 114.53446 | 33959 ft | 468 kts | 291° |
| 2026-04-23 16:47 | -17.16824 | 114.47066 | 33950 ft | 468 kts | 291° |
| 2026-04-23 16:47 | -17.14544 | 114.40665 | 33956 ft | 468 kts | 291° |
| 2026-04-23 16:48 | -17.12272 | 114.34294 | 33945 ft | 468 kts | 291° |
| 2026-04-23 16:48 | -17.09998 | 114.27925 | 33951 ft | 468 kts | 291° |
| 2026-04-23 16:49 | -17.07726 | 114.21568 | 33949 ft | 468 kts | 291° |
| 2026-04-23 16:49 | -17.05450 | 114.15207 | 33940 ft | 468 kts | 291° |
| 2026-04-23 16:50 | -17.03168 | 114.08835 | 33947 ft | 468 kts | 291° |
| 2026-04-23 16:50 | -17.00883 | 114.02466 | 33943 ft | 468 kts | 291° |
| 2026-04-23 16:51 | -16.98589 | 113.96115 | 33948 ft | 468 kts | 292° |
| 2026-04-23 16:51 | -16.96234 | 113.89771 | 33938 ft | 468 kts | 292° |
| 2026-04-23 16:52 | -16.94258 | 113.84470 | 33950 ft | 468 kts | 292° |
| 2026-04-23 16:52 | -16.91910 | 113.78159 | 33947 ft | 469 kts | 292° |
| 2026-04-23 16:53 | -16.89553 | 113.71813 | 33939 ft | 469 kts | 292° |
| 2026-04-23 16:53 | -16.87179 | 113.65424 | 33942 ft | 469 kts | 292° |
| 2026-04-23 16:54 | -16.84829 | 113.59105 | 33947 ft | 470 kts | 292° |
| 2026-04-23 16:54 | -16.82451 | 113.52719 | 33945 ft | 470 kts | 292° |
| 2026-04-23 16:55 | -16.80089 | 113.46384 | 33945 ft | 471 kts | 292° |
| 2026-04-23 16:55 | -16.77709 | 113.40007 | 33940 ft | 471 kts | 292° |
| 2026-04-23 16:56 | -16.75331 | 113.33644 | 33940 ft | 472 kts | 292° |
| 2026-04-23 16:56 | -16.72949 | 113.27275 | 33941 ft | 472 kts | 292° |
| 2026-04-23 16:57 | -16.70560 | 113.20895 | 33942 ft | 472 kts | 292° |
| 2026-04-23 16:57 | -16.68169 | 113.14516 | 33938 ft | 473 kts | 292° |
| 2026-04-23 16:58 | -16.65779 | 113.08146 | 33936 ft | 473 kts | 293° |
| 2026-04-23 16:58 | -16.63378 | 113.01755 | 33943 ft | 473 kts | 293° |
| 2026-04-23 16:59 | -16.60974 | 112.95362 | 33937 ft | 473 kts | 293° |
| 2026-04-23 16:59 | -16.58577 | 112.88995 | 33938 ft | 473 kts | 293° |
| 2026-04-23 17:00 | -16.56173 | 112.82616 | 33936 ft | 473 kts | 293° |
| 2026-04-23 17:00 | -16.53769 | 112.76244 | 33936 ft | 473 kts | 293° |
| 2026-04-23 17:01 | -16.51361 | 112.69866 | 33933 ft | 474 kts | 293° |
| 2026-04-23 17:01 | -16.48945 | 112.63474 | 33939 ft | 474 kts | 293° |
| 2026-04-23 17:02 | -16.46521 | 112.57068 | 33940 ft | 474 kts | 293° |
| 2026-04-23 17:02 | -16.44111 | 112.50707 | 33941 ft | 475 kts | 293° |
| 2026-04-23 17:03 | -16.41691 | 112.44327 | 33938 ft | 475 kts | 293° |
| 2026-04-23 17:03 | -16.39254 | 112.37908 | 33939 ft | 476 kts | 293° |
| 2026-04-23 17:04 | -16.36823 | 112.31509 | 33937 ft | 476 kts | 293° |
| 2026-04-23 17:04 | -16.34386 | 112.25103 | 33937 ft | 477 kts | 293° |
| 2026-04-23 17:05 | -16.31946 | 112.18697 | 33937 ft | 477 kts | 293° |
| 2026-04-23 17:05 | -16.29492 | 112.12260 | 33937 ft | 477 kts | 293° |
| 2026-04-23 17:06 | -16.27045 | 112.05849 | 33936 ft | 478 kts | 293° |
| 2026-04-23 17:06 | -16.24589 | 111.99420 | 33936 ft | 479 kts | 293° |
| 2026-04-23 17:07 | -16.22130 | 111.92987 | 33931 ft | 479 kts | 293° |
| 2026-04-23 17:07 | -16.19670 | 111.86561 | 33933 ft | 480 kts | 293° |
| 2026-04-23 17:08 | -16.17190 | 111.80090 | 33923 ft | 480 kts | 293° |
| 2026-04-23 17:08 | -16.14729 | 111.73673 | 33923 ft | 481 kts | 293° |
| 2026-04-23 17:09 | -16.12251 | 111.67219 | 33927 ft | 481 kts | 293° |
| 2026-04-23 17:09 | -16.09757 | 111.60732 | 33924 ft | 482 kts | 293° |
| 2026-04-23 17:10 | -16.07279 | 111.54291 | 33926 ft | 482 kts | 293° |
| 2026-04-23 17:10 | -16.04771 | 111.47779 | 33923 ft | 483 kts | 293° |
| 2026-04-23 17:11 | -16.02275 | 111.41307 | 33925 ft | 484 kts | 293° |
| 2026-04-23 17:11 | -15.99778 | 111.34836 | 33920 ft | 484 kts | 293° |
| 2026-04-23 17:12 | -15.97269 | 111.28344 | 33923 ft | 484 kts | 293° |
| 2026-04-23 17:12 | -15.94759 | 111.21854 | 33921 ft | 484 kts | 293° |
| 2026-04-23 17:13 | -15.92248 | 111.15368 | 33921 ft | 484 kts | 293° |
| 2026-04-23 17:13 | -15.89735 | 111.08883 | 33922 ft | 484 kts | 293° |
| 2026-04-23 17:14 | -15.87229 | 111.02422 | 33926 ft | 484 kts | 293° |
| 2026-04-23 17:14 | -15.84714 | 110.95947 | 33919 ft | 484 kts | 293° |
| 2026-04-23 17:15 | -15.82189 | 110.89451 | 33920 ft | 484 kts | 293° |
| 2026-04-23 17:15 | -15.79676 | 110.82994 | 33919 ft | 484 kts | 293° |
| 2026-04-23 17:16 | -15.77150 | 110.76509 | 33916 ft | 484 kts | 293° |
| 2026-04-23 17:16 | -15.74627 | 110.70036 | 33917 ft | 484 kts | 293° |
| 2026-04-23 17:17 | -15.72109 | 110.63586 | 33918 ft | 484 kts | 294° |
| 2026-04-23 17:17 | -15.69592 | 110.57143 | 33914 ft | 484 kts | 294° |
| 2026-04-23 17:18 | -15.65784 | 110.47409 | 33921 ft | 484 kts | 294° |
| 2026-04-23 17:19 | -15.63256 | 110.40956 | 33921 ft | 484 kts | 294° |
| 2026-04-23 17:19 | -15.60716 | 110.34475 | 33915 ft | 485 kts | 294° |
| 2026-04-23 17:20 | -15.58173 | 110.27997 | 33917 ft | 485 kts | 294° |
| 2026-04-23 17:21 | -15.53084 | 110.15050 | 33918 ft | 487 kts | 294° |
| 2026-04-23 17:21 | -15.48211 | 110.05866 | 33917 ft | 486 kts | 303° |
| 2026-04-23 17:22 | -15.42786 | 109.96918 | 33918 ft | 488 kts | 303° |
| 2026-04-23 17:23 | -15.37376 | 109.88025 | 33917 ft | 490 kts | 303° |
| 2026-04-23 17:24 | -15.31922 | 109.79031 | 33914 ft | 491 kts | 303° |
| 2026-04-23 17:24 | -15.26479 | 109.70063 | 33915 ft | 492 kts | 303° |
| 2026-04-23 17:25 | -15.20984 | 109.61019 | 33913 ft | 493 kts | 303° |
| 2026-04-23 17:26 | -15.13688 | 109.49031 | 33910 ft | 494 kts | 303° |
| 2026-04-23 17:27 | -15.08182 | 109.39997 | 33911 ft | 495 kts | 303° |
| 2026-04-23 17:27 | -15.04499 | 109.33958 | 33909 ft | 496 kts | 303° |
| 2026-04-23 17:28 | -15.00827 | 109.27944 | 33905 ft | 496 kts | 303° |
| 2026-04-23 17:28 | -14.97132 | 109.21895 | 33906 ft | 496 kts | 303° |
| 2026-04-23 17:29 | -14.93441 | 109.15858 | 33904 ft | 496 kts | 303° |
| 2026-04-23 17:30 | -14.88536 | 109.07842 | 33901 ft | 496 kts | 303° |
| 2026-04-23 17:30 | -14.82381 | 108.97797 | 33900 ft | 496 kts | 303° |
| 2026-04-23 17:31 | -14.78716 | 108.91822 | 33895 ft | 495 kts | 303° |
| 2026-04-23 17:31 | -14.75020 | 108.85799 | 33909 ft | 495 kts | 303° |
| 2026-04-23 17:32 | -14.71334 | 108.79798 | 33889 ft | 495 kts | 303° |
| 2026-04-23 17:32 | -14.67658 | 108.73817 | 33904 ft | 494 kts | 303° |
| 2026-04-23 17:33 | -14.63976 | 108.67832 | 33885 ft | 494 kts | 303° |
| 2026-04-23 17:33 | -14.60295 | 108.61852 | 33889 ft | 493 kts | 303° |
| 2026-04-23 17:34 | -14.56609 | 108.55870 | 33891 ft | 493 kts | 303° |
| 2026-04-23 17:35 | -14.51091 | 108.46923 | 33889 ft | 492 kts | 303° |
| 2026-04-23 17:35 | -14.45939 | 108.37832 | 33888 ft | 491 kts | 298° |
| 2026-04-23 17:36 | -14.42801 | 108.31561 | 33886 ft | 491 kts | 298° |
| 2026-04-23 17:36 | -14.39634 | 108.25350 | 33887 ft | 490 kts | 298° |
| 2026-04-23 17:37 | -14.36414 | 108.19167 | 33888 ft | 489 kts | 298° |
| 2026-04-23 17:38 | -14.31559 | 108.09919 | 33884 ft | 488 kts | 298° |
| 2026-04-23 17:38 | -14.28327 | 108.03766 | 33888 ft | 487 kts | 298° |
| 2026-04-23 17:39 | -14.25110 | 107.97641 | 33885 ft | 486 kts | 298° |
| 2026-04-23 17:39 | -14.21881 | 107.91497 | 33888 ft | 486 kts | 298° |
| 2026-04-23 17:40 | -14.18677 | 107.85405 | 33888 ft | 485 kts | 298° |
| 2026-04-23 17:40 | -14.15447 | 107.79268 | 33887 ft | 485 kts | 298° |
| 2026-04-23 17:41 | -14.12230 | 107.73162 | 33880 ft | 484 kts | 298° |
| 2026-04-23 17:41 | -14.07424 | 107.64047 | 33883 ft | 483 kts | 298° |
| 2026-04-23 17:42 | -14.02621 | 107.54948 | 33885 ft | 483 kts | 298° |
| 2026-04-23 17:43 | -13.99424 | 107.48898 | 33881 ft | 483 kts | 298° |
| 2026-04-23 17:43 | -13.96210 | 107.42818 | 33879 ft | 483 kts | 298° |
| 2026-04-23 17:44 | -13.92995 | 107.36741 | 33878 ft | 483 kts | 298° |
| 2026-04-23 17:44 | -13.88168 | 107.27629 | 33875 ft | 483 kts | 298° |
| 2026-04-23 17:45 | -13.83865 | 107.19513 | 33874 ft | 484 kts | 298° |
| 2026-04-23 17:46 | -13.79033 | 107.10409 | 33887 ft | 484 kts | 298° |
| 2026-04-23 17:46 | -13.75813 | 107.04348 | 33872 ft | 483 kts | 298° |
| 2026-04-23 17:47 | -13.72589 | 106.98284 | 33871 ft | 483 kts | 298° |
| 2026-04-23 17:48 | -13.67743 | 106.89176 | 33883 ft | 483 kts | 298° |
| 2026-04-23 17:48 | -13.64523 | 106.83131 | 33869 ft | 483 kts | 298° |
| 2026-04-23 17:49 | -13.61291 | 106.77068 | 33867 ft | 483 kts | 298° |
| 2026-04-23 17:49 | -13.58065 | 106.71020 | 33879 ft | 483 kts | 298° |
| 2026-04-23 17:50 | -13.54838 | 106.64973 | 33864 ft | 483 kts | 298° |
| 2026-04-23 17:50 | -13.49988 | 106.55897 | 33863 ft | 484 kts | 298° |
| 2026-04-23 17:51 | -13.46737 | 106.49816 | 33874 ft | 484 kts | 299° |
| 2026-04-23 17:52 | -13.41884 | 106.40749 | 33872 ft | 484 kts | 299° |
| 2026-04-23 17:52 | -13.37011 | 106.31654 | 33872 ft | 483 kts | 299° |
| 2026-04-23 17:53 | -13.32154 | 106.22599 | 33871 ft | 483 kts | 299° |
| 2026-04-23 17:54 | -13.28930 | 106.16594 | 33848 ft | 483 kts | 299° |
| 2026-04-23 17:54 | -13.24044 | 106.07500 | 33859 ft | 483 kts | 299° |
| 2026-04-23 17:55 | -13.19172 | 105.98443 | 33858 ft | 483 kts | 299° |
| 2026-04-23 17:56 | -13.15936 | 105.92431 | 33859 ft | 483 kts | 299° |
| 2026-04-23 17:56 | -13.11068 | 105.83398 | 33857 ft | 483 kts | 299° |
| 2026-04-23 17:57 | -13.07813 | 105.77361 | 33856 ft | 483 kts | 299° |
| 2026-04-23 17:58 | -13.02923 | 105.68303 | 33856 ft | 483 kts | 299° |
| 2026-04-23 17:58 | -12.99664 | 105.62270 | 33853 ft | 483 kts | 299° |
| 2026-04-23 17:59 | -12.96416 | 105.56262 | 33853 ft | 483 kts | 299° |
| 2026-04-23 17:59 | -12.93163 | 105.50249 | 33854 ft | 483 kts | 299° |
| 2026-04-23 18:00 | -12.89888 | 105.44200 | 33854 ft | 483 kts | 299° |
| 2026-04-23 18:00 | -12.86645 | 105.38212 | 33855 ft | 483 kts | 299° |
| 2026-04-23 18:01 | -12.83379 | 105.32188 | 33854 ft | 483 kts | 299° |
| 2026-04-23 18:01 | -12.80116 | 105.26173 | 33851 ft | 483 kts | 299° |
| 2026-04-23 18:02 | -12.76851 | 105.20159 | 33851 ft | 483 kts | 299° |
| 2026-04-23 18:02 | -12.73589 | 105.14153 | 33851 ft | 483 kts | 299° |
| 2026-04-23 18:03 | -12.70307 | 105.08113 | 33847 ft | 484 kts | 299° |
| 2026-04-23 18:03 | -12.67039 | 105.02105 | 33849 ft | 484 kts | 299° |
| 2026-04-23 18:04 | -12.63768 | 104.96096 | 33847 ft | 484 kts | 299° |
| 2026-04-23 18:04 | -12.60500 | 104.90095 | 33850 ft | 484 kts | 299° |
| 2026-04-23 18:05 | -12.57232 | 104.84100 | 33850 ft | 484 kts | 298° |
| 2026-04-23 18:05 | -12.53929 | 104.78043 | 33846 ft | 484 kts | 298° |
| 2026-04-23 18:06 | -12.50650 | 104.72034 | 33844 ft | 484 kts | 298° |
| 2026-04-23 18:06 | -12.47361 | 104.66011 | 33843 ft | 484 kts | 298° |
| 2026-04-23 18:07 | -12.44072 | 104.59993 | 33841 ft | 485 kts | 298° |
| 2026-04-23 18:07 | -12.40787 | 104.53985 | 33846 ft | 485 kts | 298° |
| 2026-04-23 18:08 | -12.38055 | 104.48992 | 33844 ft | 485 kts | 298° |
| 2026-04-23 18:08 | -12.34202 | 104.41954 | 33838 ft | 485 kts | 298° |
| 2026-04-23 18:09 | -12.30903 | 104.35934 | 33838 ft | 485 kts | 298° |
| 2026-04-23 18:09 | -12.27600 | 104.29909 | 33836 ft | 485 kts | 298° |
| 2026-04-23 18:10 | -12.24301 | 104.23896 | 33840 ft | 485 kts | 298° |
| 2026-04-23 18:10 | -12.21004 | 104.17890 | 33840 ft | 485 kts | 298° |
| 2026-04-23 18:11 | -12.17688 | 104.11853 | 33840 ft | 485 kts | 298° |
| 2026-04-23 18:11 | -12.14404 | 104.05878 | 33840 ft | 485 kts | 298° |
| 2026-04-23 18:12 | -12.11089 | 103.99850 | 33837 ft | 486 kts | 298° |
| 2026-04-23 18:12 | -12.07787 | 103.93850 | 33842 ft | 486 kts | 298° |
| 2026-04-23 18:13 | -12.04466 | 103.87822 | 33840 ft | 486 kts | 298° |
| 2026-04-23 18:13 | -12.01156 | 103.81814 | 33839 ft | 486 kts | 298° |
| 2026-04-23 18:14 | -11.97841 | 103.75802 | 33841 ft | 486 kts | 298° |
| 2026-04-23 18:14 | -11.94520 | 103.69784 | 33843 ft | 486 kts | 298° |
| 2026-04-23 18:15 | -11.91193 | 103.63758 | 33841 ft | 486 kts | 298° |
| 2026-04-23 18:15 | -11.87876 | 103.57754 | 33843 ft | 486 kts | 298° |
| 2026-04-23 18:16 | -11.84553 | 103.51743 | 33842 ft | 487 kts | 298° |
| 2026-04-23 18:16 | -11.81226 | 103.45729 | 33842 ft | 487 kts | 298° |
| 2026-04-23 18:17 | -11.76241 | 103.36725 | 33844 ft | 487 kts | 298° |
| 2026-04-23 18:17 | -11.72897 | 103.30688 | 33843 ft | 487 kts | 298° |
| 2026-04-23 18:18 | -11.69572 | 103.24690 | 33844 ft | 487 kts | 298° |
| 2026-04-23 18:18 | -11.66215 | 103.18638 | 33846 ft | 487 kts | 298° |
| 2026-04-23 18:19 | -11.62887 | 103.12641 | 33836 ft | 487 kts | 298° |
| 2026-04-23 18:19 | -11.59552 | 103.06636 | 33842 ft | 488 kts | 298° |
| 2026-04-23 18:20 | -11.56191 | 103.00588 | 33842 ft | 488 kts | 298° |
| 2026-04-23 18:20 | -11.52855 | 102.94589 | 33848 ft | 488 kts | 298° |
| 2026-04-23 18:21 | -11.49515 | 102.88585 | 33844 ft | 488 kts | 298° |
| 2026-04-23 18:21 | -11.46167 | 102.82573 | 33846 ft | 488 kts | 298° |
| 2026-04-23 18:22 | -11.42819 | 102.76562 | 33846 ft | 488 kts | 298° |
| 2026-04-23 18:22 | -11.39460 | 102.70537 | 33844 ft | 489 kts | 298° |
| 2026-04-23 18:23 | -11.34428 | 102.61515 | 33850 ft | 489 kts | 298° |
| 2026-04-23 18:24 | -11.29368 | 102.52453 | 33851 ft | 490 kts | 298° |
| 2026-04-23 18:25 | -11.24325 | 102.43427 | 33850 ft | 490 kts | 298° |
| 2026-04-23 18:25 | -11.20929 | 102.37356 | 33848 ft | 490 kts | 298° |
| 2026-04-23 18:26 | -11.17568 | 102.31349 | 33850 ft | 491 kts | 298° |
| 2026-04-23 18:26 | -11.14186 | 102.25310 | 33850 ft | 491 kts | 298° |
| 2026-04-23 18:27 | -11.10812 | 102.19286 | 33851 ft | 491 kts | 298° |
| 2026-04-23 18:27 | -11.07404 | 102.13208 | 33853 ft | 492 kts | 298° |
| 2026-04-23 18:28 | -11.04030 | 102.07193 | 33846 ft | 492 kts | 298° |
| 2026-04-23 18:28 | -11.00629 | 102.01131 | 33960 ft | 491 kts | 298° |
| 2026-04-23 18:28 | -10.98963 | 101.98139 | 34335 ft | 487 kts | 297° |
| 2026-04-23 18:29 | -10.97382 | 101.95077 | 34727 ft | 483 kts | 295° |
| 2026-04-23 18:29 | -10.95907 | 101.92056 | 35023 ft | 481 kts | 295° |
| 2026-04-23 18:29 | -10.94431 | 101.88975 | 35290 ft | 480 kts | 295° |
| 2026-04-23 18:29 | -10.92981 | 101.85955 | 35546 ft | 479 kts | 295° |
| 2026-04-23 18:30 | -10.91499 | 101.82900 | 35770 ft | 478 kts | 295° |
| 2026-04-23 18:30 | -10.88505 | 101.76810 | 35853 ft | 485 kts | 296° |
| 2026-04-23 18:31 | -10.85463 | 101.70685 | 35853 ft | 484 kts | 296° |
| 2026-04-23 18:31 | -10.82436 | 101.64600 | 35853 ft | 484 kts | 296° |
| 2026-04-23 18:32 | -10.79399 | 101.58494 | 35860 ft | 484 kts | 296° |
| 2026-04-23 18:32 | -10.76356 | 101.52377 | 35854 ft | 484 kts | 296° |
| 2026-04-23 18:33 | -10.73322 | 101.46279 | 35854 ft | 485 kts | 296° |
| 2026-04-23 18:33 | -10.70269 | 101.40148 | 35855 ft | 485 kts | 296° |
| 2026-04-23 18:34 | -10.67226 | 101.34041 | 35856 ft | 485 kts | 296° |
| 2026-04-23 18:34 | -10.64178 | 101.27928 | 35857 ft | 485 kts | 296° |
| 2026-04-23 18:35 | -10.61129 | 101.21817 | 35856 ft | 485 kts | 296° |
| 2026-04-23 18:35 | -10.58075 | 101.15697 | 35856 ft | 486 kts | 296° |
| 2026-04-23 18:36 | -10.55025 | 101.09591 | 35856 ft | 486 kts | 296° |
| 2026-04-23 18:36 | -10.51975 | 101.03486 | 35858 ft | 486 kts | 296° |
| 2026-04-23 18:37 | -10.48917 | 100.97371 | 35857 ft | 486 kts | 296° |
| 2026-04-23 18:37 | -10.46361 | 100.92262 | 35857 ft | 486 kts | 296° |
| 2026-04-23 18:38 | -10.43297 | 100.86140 | 35854 ft | 486 kts | 296° |
| 2026-04-23 18:38 | -10.40213 | 100.79983 | 35858 ft | 487 kts | 296° |
| 2026-04-23 18:39 | -10.37143 | 100.73858 | 35859 ft | 487 kts | 296° |
| 2026-04-23 18:39 | -10.34078 | 100.67745 | 35857 ft | 487 kts | 296° |
| 2026-04-23 18:40 | -10.31012 | 100.61633 | 35854 ft | 487 kts | 296° |
| 2026-04-23 18:40 | -10.27918 | 100.55470 | 35857 ft | 487 kts | 296° |
| 2026-04-23 18:41 | -10.24854 | 100.49370 | 35859 ft | 487 kts | 296° |
| 2026-04-23 18:41 | -10.21776 | 100.43245 | 35860 ft | 488 kts | 296° |
| 2026-04-23 18:42 | -10.18687 | 100.37101 | 35862 ft | 488 kts | 296° |
| 2026-04-23 18:42 | -10.15613 | 100.30992 | 35860 ft | 488 kts | 296° |
| 2026-04-23 18:43 | -10.12531 | 100.24869 | 35859 ft | 488 kts | 296° |
| 2026-04-23 18:43 | -10.09428 | 100.18709 | 35858 ft | 488 kts | 296° |
| 2026-04-23 18:44 | -10.06347 | 100.12594 | 35859 ft | 488 kts | 296° |
| 2026-04-23 18:44 | -10.03251 | 100.06456 | 35859 ft | 489 kts | 296° |
| 2026-04-23 18:45 | -10.00165 | 100.00339 | 35858 ft | 489 kts | 296° |
| 2026-04-23 18:45 | -9.97105 | 99.94186 | 35859 ft | 489 kts | 295° |
| 2026-04-23 18:46 | -9.94088 | 99.87986 | 35859 ft | 489 kts | 295° |
| 2026-04-23 18:46 | -9.91078 | 99.81812 | 35858 ft | 489 kts | 295° |
| 2026-04-23 18:47 | -9.88052 | 99.75634 | 35859 ft | 489 kts | 295° |
| 2026-04-23 18:47 | -9.85024 | 99.69467 | 35860 ft | 490 kts | 295° |
| 2026-04-23 18:48 | -9.81977 | 99.63266 | 35858 ft | 490 kts | 295° |
| 2026-04-23 18:48 | -9.78946 | 99.57097 | 35859 ft | 490 kts | 295° |
| 2026-04-23 18:49 | -9.75906 | 99.50914 | 35858 ft | 490 kts | 295° |
| 2026-04-23 18:49 | -9.72860 | 99.44723 | 35859 ft | 490 kts | 295° |
| 2026-04-23 18:50 | -9.70335 | 99.39594 | 35859 ft | 490 kts | 295° |
| 2026-04-23 18:50 | -9.66771 | 99.32355 | 35859 ft | 491 kts | 295° |
| 2026-04-23 18:51 | -9.63736 | 99.26196 | 35860 ft | 491 kts | 295° |
| 2026-04-23 18:51 | -9.60668 | 99.19975 | 35860 ft | 491 kts | 295° |
| 2026-04-23 18:52 | -9.57617 | 99.13789 | 35859 ft | 491 kts | 295° |
| 2026-04-23 18:52 | -9.54576 | 99.07628 | 35858 ft | 492 kts | 295° |
| 2026-04-23 18:53 | -9.51509 | 99.01417 | 35858 ft | 492 kts | 295° |
| 2026-04-23 18:53 | -9.48437 | 98.95199 | 35859 ft | 492 kts | 295° |
| 2026-04-23 18:54 | -9.45380 | 98.89017 | 35857 ft | 492 kts | 295° |
| 2026-04-23 18:54 | -9.42319 | 98.82830 | 35857 ft | 493 kts | 295° |
| 2026-04-23 18:55 | -9.39236 | 98.76599 | 35856 ft | 493 kts | 295° |
| 2026-04-23 18:55 | -9.36184 | 98.70434 | 35857 ft | 493 kts | 295° |
| 2026-04-23 18:56 | -9.33617 | 98.65251 | 35858 ft | 493 kts | 295° |
| 2026-04-23 18:56 | -9.30042 | 98.58039 | 35857 ft | 493 kts | 295° |
| 2026-04-23 18:57 | -9.26966 | 98.51839 | 35856 ft | 493 kts | 295° |
| 2026-04-23 18:57 | -9.23878 | 98.45614 | 35854 ft | 493 kts | 295° |
| 2026-04-23 18:58 | -9.20797 | 98.39409 | 35858 ft | 494 kts | 295° |
| 2026-04-23 18:58 | -9.17712 | 98.33197 | 35856 ft | 494 kts | 295° |
| 2026-04-23 18:59 | -9.14638 | 98.27011 | 35856 ft | 494 kts | 295° |
| 2026-04-23 18:59 | -9.11551 | 98.20803 | 35857 ft | 494 kts | 295° |
| 2026-04-23 19:00 | -9.08459 | 98.14586 | 35856 ft | 494 kts | 295° |
| 2026-04-23 19:00 | -9.05381 | 98.08402 | 35857 ft | 494 kts | 295° |
| 2026-04-23 19:01 | -9.02286 | 98.02185 | 35859 ft | 494 kts | 295° |
| 2026-04-23 19:01 | -8.99190 | 97.95975 | 35859 ft | 494 kts | 295° |
| 2026-04-23 19:02 | -8.96607 | 97.90791 | 35858 ft | 494 kts | 295° |
| 2026-04-23 19:02 | -8.93005 | 97.83565 | 35856 ft | 494 kts | 295° |
| 2026-04-23 19:03 | -8.89917 | 97.77379 | 35853 ft | 494 kts | 295° |
| 2026-04-23 19:03 | -8.86824 | 97.71182 | 35853 ft | 494 kts | 295° |
| 2026-04-23 19:04 | -8.83708 | 97.64946 | 35853 ft | 494 kts | 295° |
| 2026-04-23 19:04 | -8.80615 | 97.58756 | 35852 ft | 494 kts | 295° |
| 2026-04-23 19:05 | -8.77520 | 97.52569 | 35853 ft | 494 kts | 295° |
| 2026-04-23 19:05 | -8.74415 | 97.46361 | 35854 ft | 494 kts | 295° |
| 2026-04-23 19:06 | -8.71322 | 97.40181 | 35853 ft | 495 kts | 295° |
| 2026-04-23 19:06 | -8.68218 | 97.33980 | 35854 ft | 495 kts | 295° |
| 2026-04-23 19:07 | -8.65112 | 97.27779 | 35852 ft | 495 kts | 295° |
| 2026-04-23 19:07 | -8.62004 | 97.21577 | 35854 ft | 495 kts | 295° |
| 2026-04-23 19:08 | -8.58891 | 97.15370 | 35855 ft | 495 kts | 295° |
| 2026-04-23 19:08 | -8.55765 | 97.09143 | 35854 ft | 495 kts | 295° |
| 2026-04-23 19:09 | -8.52663 | 97.02961 | 35853 ft | 495 kts | 295° |
| 2026-04-23 19:09 | -8.49560 | 96.96780 | 35851 ft | 495 kts | 295° |
| 2026-04-23 19:10 | -8.46454 | 96.90594 | 35851 ft | 495 kts | 296° |
| 2026-04-23 19:10 | -8.43338 | 96.84400 | 35852 ft | 495 kts | 296° |
| 2026-04-23 19:11 | -8.40220 | 96.78203 | 35850 ft | 495 kts | 295° |
| 2026-04-23 19:11 | -8.37095 | 96.71991 | 35852 ft | 495 kts | 295° |
| 2026-04-23 19:12 | -8.34516 | 96.66864 | 35852 ft | 495 kts | 296° |
| 2026-04-23 19:12 | -8.30867 | 96.59623 | 35849 ft | 495 kts | 296° |
| 2026-04-23 19:13 | -8.27743 | 96.53420 | 35848 ft | 495 kts | 295° |
| 2026-04-23 19:13 | -8.24620 | 96.47226 | 35848 ft | 495 kts | 296° |
| 2026-04-23 19:14 | -8.21498 | 96.41035 | 35848 ft | 496 kts | 296° |
| 2026-04-23 19:14 | -8.18379 | 96.34851 | 35847 ft | 496 kts | 296° |
| 2026-04-23 19:15 | -8.15250 | 96.28649 | 35847 ft | 496 kts | 296° |
| 2026-04-23 19:15 | -8.12108 | 96.22428 | 35845 ft | 496 kts | 296° |
| 2026-04-23 19:16 | -8.08979 | 96.16235 | 35846 ft | 496 kts | 296° |
| 2026-04-23 19:16 | -8.05847 | 96.10040 | 35847 ft | 496 kts | 296° |
| 2026-04-23 19:17 | -8.01155 | 96.00763 | 35849 ft | 496 kts | 296° |
| 2026-04-23 19:17 | -7.98005 | 95.94538 | 35845 ft | 496 kts | 296° |
| 2026-04-23 19:18 | -7.94870 | 95.88350 | 35848 ft | 497 kts | 296° |
| 2026-04-23 19:18 | -7.91727 | 95.82143 | 35845 ft | 497 kts | 296° |
| 2026-04-23 19:19 | -7.87028 | 95.72868 | 35846 ft | 497 kts | 296° |
| 2026-04-23 19:20 | -7.82297 | 95.63540 | 35847 ft | 497 kts | 296° |
| 2026-04-23 19:20 | -7.79152 | 95.57342 | 35842 ft | 497 kts | 296° |
| 2026-04-23 19:21 | -7.74435 | 95.48050 | 35842 ft | 497 kts | 296° |
| 2026-04-23 19:22 | -7.71285 | 95.41848 | 35843 ft | 497 kts | 296° |
| 2026-04-23 19:22 | -7.66573 | 95.32577 | 35842 ft | 497 kts | 296° |
| 2026-04-23 19:23 | -7.63418 | 95.26370 | 35843 ft | 497 kts | 296° |
| 2026-04-23 19:24 | -7.58691 | 95.17079 | 35846 ft | 497 kts | 296° |
| 2026-04-23 19:24 | -7.53966 | 95.07798 | 35845 ft | 497 kts | 296° |
| 2026-04-23 19:25 | -7.47661 | 94.95388 | 35842 ft | 497 kts | 296° |
| 2026-04-23 19:26 | -7.42982 | 94.86012 | 35842 ft | 498 kts | 296° |
| 2026-04-23 19:27 | -7.35187 | 94.70437 | 35842 ft | 498 kts | 296° |
| 2026-04-23 19:28 | -7.28944 | 94.57992 | 35841 ft | 498 kts | 296° |
| 2026-04-23 19:29 | -7.24772 | 94.49682 | 35840 ft | 499 kts | 296° |
| 2026-04-23 19:30 | -7.20085 | 94.40351 | 35839 ft | 499 kts | 296° |
| 2026-04-23 19:31 | -7.15381 | 94.30993 | 35841 ft | 499 kts | 296° |
| 2026-04-23 19:31 | -7.12249 | 94.24762 | 35838 ft | 499 kts | 296° |
| 2026-04-23 19:32 | -7.09106 | 94.18513 | 35840 ft | 499 kts | 296° |
| 2026-04-23 19:32 | -7.05973 | 94.12288 | 35839 ft | 499 kts | 296° |
| 2026-04-23 19:33 | -7.02833 | 94.06051 | 35842 ft | 500 kts | 296° |
| 2026-04-23 19:33 | -6.98116 | 93.96686 | 35838 ft | 500 kts | 296° |
| 2026-04-23 19:34 | -6.94970 | 93.90443 | 35838 ft | 501 kts | 296° |
| 2026-04-23 19:35 | -6.90231 | 93.81041 | 35841 ft | 501 kts | 296° |
| 2026-04-23 19:35 | -6.87091 | 93.74817 | 35838 ft | 501 kts | 296° |
| 2026-04-23 19:36 | -6.83938 | 93.68569 | 35837 ft | 502 kts | 296° |
| 2026-04-23 19:36 | -6.80756 | 93.62267 | 35840 ft | 502 kts | 296° |
| 2026-04-23 19:37 | -6.77596 | 93.56007 | 35836 ft | 502 kts | 296° |
| 2026-04-23 19:37 | -6.74448 | 93.49777 | 35838 ft | 502 kts | 296° |
| 2026-04-23 19:38 | -6.71269 | 93.43485 | 35842 ft | 502 kts | 296° |
| 2026-04-23 19:38 | -6.68125 | 93.37267 | 35839 ft | 502 kts | 296° |
| 2026-04-23 19:39 | -6.64961 | 93.31010 | 35842 ft | 502 kts | 296° |
| 2026-04-23 19:39 | -6.61782 | 93.24730 | 35837 ft | 503 kts | 296° |
| 2026-04-23 19:40 | -6.58613 | 93.18468 | 35838 ft | 503 kts | 296° |
| 2026-04-23 19:40 | -6.55441 | 93.12205 | 35834 ft | 503 kts | 296° |
| 2026-04-23 19:41 | -6.52258 | 93.05921 | 35836 ft | 503 kts | 296° |
| 2026-04-23 19:41 | -6.49080 | 92.99648 | 35831 ft | 503 kts | 296° |
| 2026-04-23 19:42 | -6.45906 | 92.93386 | 35832 ft | 504 kts | 296° |
| 2026-04-23 19:42 | -6.42731 | 92.87126 | 35831 ft | 504 kts | 296° |
| 2026-04-23 19:43 | -6.39539 | 92.80834 | 35832 ft | 504 kts | 296° |
| 2026-04-23 19:43 | -6.36352 | 92.74553 | 35832 ft | 504 kts | 296° |
| 2026-04-23 19:44 | -6.33175 | 92.68296 | 35834 ft | 504 kts | 296° |
| 2026-04-23 19:44 | -6.29993 | 92.62030 | 35831 ft | 504 kts | 296° |
| 2026-04-23 19:45 | -6.26801 | 92.55747 | 35835 ft | 504 kts | 296° |
| 2026-04-23 19:45 | -6.23611 | 92.49467 | 35834 ft | 504 kts | 296° |
| 2026-04-23 19:46 | -6.20422 | 92.43196 | 35829 ft | 504 kts | 296° |
| 2026-04-23 19:46 | -6.17234 | 92.36927 | 35832 ft | 504 kts | 296° |
| 2026-04-23 19:47 | -6.14026 | 92.30620 | 35828 ft | 504 kts | 296° |
| 2026-04-23 19:47 | -6.10836 | 92.24352 | 35830 ft | 504 kts | 296° |
| 2026-04-23 19:48 | -6.07644 | 92.18081 | 35826 ft | 504 kts | 296° |
| 2026-04-23 19:48 | -6.04456 | 92.11819 | 35832 ft | 505 kts | 296° |
| 2026-04-23 19:49 | -6.01259 | 92.05542 | 35831 ft | 505 kts | 296° |
| 2026-04-23 19:49 | -5.98063 | 91.99271 | 35826 ft | 505 kts | 296° |
| 2026-04-23 19:50 | -5.94867 | 91.93002 | 35829 ft | 505 kts | 296° |
| 2026-04-23 19:50 | -5.91672 | 91.86738 | 35828 ft | 505 kts | 296° |
| 2026-04-23 19:51 | -5.88448 | 91.80418 | 35822 ft | 505 kts | 296° |
| 2026-04-23 19:51 | -5.85269 | 91.74188 | 35827 ft | 505 kts | 296° |
| 2026-04-23 19:52 | -5.82063 | 91.67907 | 35825 ft | 505 kts | 296° |
| 2026-04-23 19:52 | -5.78856 | 91.61627 | 35824 ft | 505 kts | 296° |
| 2026-04-23 19:53 | -5.75642 | 91.55336 | 35825 ft | 505 kts | 296° |
| 2026-04-23 19:53 | -5.72430 | 91.49049 | 35826 ft | 505 kts | 296° |
| 2026-04-23 19:54 | -5.69231 | 91.42792 | 35828 ft | 506 kts | 296° |
| 2026-04-23 19:54 | -5.66021 | 91.36513 | 35827 ft | 506 kts | 296° |
| 2026-04-23 19:55 | -5.62791 | 91.30198 | 35828 ft | 506 kts | 296° |
| 2026-04-23 19:55 | -5.59582 | 91.23925 | 35827 ft | 506 kts | 296° |
| 2026-04-23 19:56 | -5.56368 | 91.17645 | 35828 ft | 506 kts | 297° |
| 2026-04-23 19:56 | -5.53153 | 91.11364 | 35826 ft | 506 kts | 297° |
| 2026-04-23 19:57 | -5.49927 | 91.05065 | 35821 ft | 507 kts | 297° |
| 2026-04-23 19:57 | -5.46717 | 90.98798 | 35823 ft | 507 kts | 297° |
| 2026-04-23 19:58 | -5.43490 | 90.92500 | 35823 ft | 507 kts | 297° |
| 2026-04-23 19:58 | -5.40273 | 90.86225 | 35824 ft | 507 kts | 297° |
| 2026-04-23 19:59 | -5.37045 | 90.79931 | 35823 ft | 507 kts | 297° |
| 2026-04-23 19:59 | -5.33805 | 90.73614 | 35823 ft | 507 kts | 297° |
| 2026-04-23 20:00 | -5.30655 | 90.67300 | 35825 ft | 507 kts | 295° |
| 2026-04-23 20:00 | -5.27597 | 90.60935 | 35824 ft | 507 kts | 295° |
| 2026-04-23 20:01 | -5.24533 | 90.54572 | 35822 ft | 507 kts | 295° |
| 2026-04-23 20:01 | -5.21432 | 90.48179 | 35826 ft | 507 kts | 295° |
| 2026-04-23 20:02 | -5.18346 | 90.41842 | 35826 ft | 507 kts | 295° |
| 2026-04-23 20:02 | -5.15239 | 90.35463 | 35826 ft | 507 kts | 295° |
| 2026-04-23 20:03 | -5.12150 | 90.29120 | 35825 ft | 507 kts | 296° |
| 2026-04-23 20:03 | -5.09055 | 90.22767 | 35823 ft | 507 kts | 296° |
| 2026-04-23 20:04 | -5.05965 | 90.16426 | 35824 ft | 507 kts | 296° |
| 2026-04-23 20:04 | -5.02851 | 90.10037 | 35824 ft | 507 kts | 296° |
| 2026-04-23 20:05 | -5.00276 | 90.04754 | 35824 ft | 507 kts | 296° |
| 2026-04-23 20:05 | -4.96660 | 89.97340 | 35824 ft | 507 kts | 296° |
| 2026-04-23 20:06 | -4.93564 | 89.90994 | 35822 ft | 507 kts | 296° |
| 2026-04-23 20:06 | -4.90463 | 89.84639 | 35821 ft | 507 kts | 296° |
| 2026-04-23 20:07 | -4.87357 | 89.78276 | 35821 ft | 507 kts | 296° |
| 2026-04-23 20:07 | -4.84276 | 89.71965 | 35825 ft | 507 kts | 296° |
| 2026-04-23 20:08 | -4.81182 | 89.65631 | 35822 ft | 507 kts | 296° |
| 2026-04-23 20:08 | -4.78065 | 89.59251 | 35825 ft | 507 kts | 296° |
| 2026-04-23 20:09 | -4.74968 | 89.52913 | 35825 ft | 507 kts | 296° |
| 2026-04-23 20:09 | -4.71864 | 89.46564 | 35821 ft | 507 kts | 296° |
| 2026-04-23 20:10 | -4.69286 | 89.41291 | 35825 ft | 507 kts | 296° |
| 2026-04-23 20:10 | -4.65650 | 89.33857 | 35823 ft | 507 kts | 296° |
| 2026-04-23 20:11 | -4.62545 | 89.27510 | 35822 ft | 508 kts | 296° |
| 2026-04-23 20:11 | -4.59429 | 89.21142 | 35825 ft | 508 kts | 296° |
| 2026-04-23 20:12 | -4.56341 | 89.14834 | 35822 ft | 508 kts | 296° |
| 2026-04-23 20:12 | -4.53221 | 89.08461 | 35824 ft | 508 kts | 296° |
| 2026-04-23 20:13 | -4.50105 | 89.02100 | 35824 ft | 508 kts | 296° |
| 2026-04-23 20:13 | -4.46999 | 88.95759 | 35821 ft | 508 kts | 296° |
| 2026-04-23 20:14 | -4.43888 | 88.89410 | 35821 ft | 508 kts | 296° |
| 2026-04-23 20:14 | -4.40758 | 88.83023 | 35822 ft | 508 kts | 296° |
| 2026-04-23 20:15 | -4.37663 | 88.76709 | 35824 ft | 509 kts | 296° |
| 2026-04-23 20:15 | -4.34550 | 88.70361 | 35825 ft | 509 kts | 296° |
| 2026-04-23 20:16 | -4.31420 | 88.63981 | 35824 ft | 509 kts | 296° |
| 2026-04-23 20:16 | -4.28295 | 88.57611 | 35825 ft | 509 kts | 296° |
| 2026-04-23 20:17 | -4.25195 | 88.51294 | 35823 ft | 509 kts | 296° |
| 2026-04-23 20:17 | -4.22057 | 88.44900 | 35820 ft | 509 kts | 296° |
| 2026-04-23 20:18 | -4.19465 | 88.39622 | 35822 ft | 509 kts | 296° |
| 2026-04-23 20:18 | -4.16326 | 88.33230 | 35820 ft | 509 kts | 296° |
| 2026-04-23 20:19 | -4.13201 | 88.26869 | 35822 ft | 510 kts | 296° |
| 2026-04-23 20:19 | -4.10063 | 88.20482 | 35821 ft | 510 kts | 296° |
| 2026-04-23 20:20 | -4.06951 | 88.14149 | 35823 ft | 510 kts | 296° |
| 2026-04-23 20:20 | -4.03816 | 88.07773 | 35818 ft | 510 kts | 296° |
| 2026-04-23 20:21 | -4.00691 | 88.01416 | 35817 ft | 510 kts | 296° |
| 2026-04-23 20:21 | -3.97494 | 87.95034 | 35816 ft | 510 kts | 297° |
| 2026-04-23 20:22 | -3.94227 | 87.88782 | 35817 ft | 510 kts | 297° |
| 2026-04-23 20:22 | -3.90913 | 87.82451 | 35820 ft | 510 kts | 297° |
| 2026-04-23 20:23 | -3.87648 | 87.76171 | 35819 ft | 510 kts | 297° |
| 2026-04-23 20:23 | -3.84384 | 87.69875 | 35823 ft | 510 kts | 297° |
| 2026-04-23 20:24 | -3.81117 | 87.63570 | 35822 ft | 510 kts | 297° |
| 2026-04-23 20:24 | -3.77848 | 87.57264 | 35820 ft | 511 kts | 297° |
| 2026-04-23 20:25 | -3.74566 | 87.50937 | 35818 ft | 511 kts | 297° |
| 2026-04-23 20:25 | -3.71294 | 87.44630 | 35817 ft | 511 kts | 297° |
| 2026-04-23 20:26 | -3.68015 | 87.38310 | 35818 ft | 511 kts | 297° |
| 2026-04-23 20:26 | -3.64746 | 87.32011 | 35818 ft | 511 kts | 297° |
| 2026-04-23 20:27 | -3.61487 | 87.25734 | 35816 ft | 511 kts | 297° |
| 2026-04-23 20:27 | -3.58202 | 87.19407 | 35816 ft | 511 kts | 297° |
| 2026-04-23 20:28 | -3.54919 | 87.13085 | 35814 ft | 511 kts | 297° |
| 2026-04-23 20:28 | -3.51656 | 87.06802 | 35816 ft | 511 kts | 297° |
| 2026-04-23 20:29 | -3.48370 | 87.00478 | 35815 ft | 511 kts | 297° |
| 2026-04-23 20:29 | -3.45079 | 86.94144 | 35818 ft | 511 kts | 297° |
| 2026-04-23 20:30 | -3.41809 | 86.87852 | 35818 ft | 511 kts | 297° |
| 2026-04-23 20:30 | -3.36893 | 86.78395 | 35814 ft | 512 kts | 297° |
| 2026-04-23 20:31 | -3.33616 | 86.72094 | 35821 ft | 511 kts | 297° |
| 2026-04-23 20:31 | -3.30329 | 86.65773 | 35814 ft | 511 kts | 297° |
| 2026-04-23 20:32 | -3.27046 | 86.59462 | 35814 ft | 512 kts | 297° |
| 2026-04-23 20:32 | -3.23768 | 86.53161 | 35815 ft | 512 kts | 297° |
| 2026-04-23 20:33 | -3.20477 | 86.46837 | 35814 ft | 511 kts | 297° |
| 2026-04-23 20:33 | -3.17209 | 86.40558 | 35813 ft | 512 kts | 297° |
| 2026-04-23 20:34 | -3.13921 | 86.34243 | 35815 ft | 512 kts | 297° |
| 2026-04-23 20:34 | -3.10628 | 86.27917 | 35817 ft | 512 kts | 297° |
| 2026-04-23 20:35 | -3.07346 | 86.21614 | 35818 ft | 511 kts | 297° |
| 2026-04-23 20:35 | -3.04069 | 86.15324 | 35814 ft | 512 kts | 297° |
| 2026-04-23 20:36 | -3.00792 | 86.09033 | 35816 ft | 512 kts | 297° |
| 2026-04-23 20:36 | -2.97501 | 86.02716 | 35814 ft | 512 kts | 297° |
| 2026-04-23 20:37 | -2.94203 | 85.96385 | 35815 ft | 512 kts | 297° |
| 2026-04-23 20:37 | -2.90932 | 85.90110 | 35814 ft | 512 kts | 297° |
| 2026-04-23 20:38 | -2.87627 | 85.83769 | 35812 ft | 511 kts | 297° |
| 2026-04-23 20:38 | -2.84355 | 85.77494 | 35816 ft | 511 kts | 297° |
| 2026-04-23 20:39 | -2.81070 | 85.71194 | 35811 ft | 511 kts | 297° |
| 2026-04-23 20:39 | -2.77768 | 85.64861 | 35813 ft | 511 kts | 297° |
| 2026-04-23 20:40 | -2.74494 | 85.58586 | 35814 ft | 511 kts | 297° |
| 2026-04-23 20:40 | -2.71191 | 85.52255 | 35812 ft | 511 kts | 297° |
| 2026-04-23 20:41 | -2.67939 | 85.46022 | 35813 ft | 511 kts | 297° |
| 2026-04-23 20:41 | -2.64617 | 85.39655 | 35811 ft | 511 kts | 297° |
| 2026-04-23 20:42 | -2.61328 | 85.33355 | 35814 ft | 512 kts | 297° |
| 2026-04-23 20:42 | -2.58026 | 85.27029 | 35811 ft | 512 kts | 297° |
| 2026-04-23 20:43 | -2.54744 | 85.20742 | 35813 ft | 512 kts | 297° |
| 2026-04-23 20:43 | -2.51467 | 85.14466 | 35812 ft | 512 kts | 297° |
| 2026-04-23 20:44 | -2.48169 | 85.08151 | 35813 ft | 512 kts | 297° |
| 2026-04-23 20:44 | -2.44871 | 85.01837 | 35810 ft | 512 kts | 297° |
| 2026-04-23 20:45 | -2.41574 | 84.95526 | 35808 ft | 512 kts | 297° |
| 2026-04-23 20:45 | -2.38285 | 84.89229 | 35812 ft | 512 kts | 297° |
| 2026-04-23 20:46 | -2.35007 | 84.82956 | 35813 ft | 512 kts | 297° |
| 2026-04-23 20:46 | -2.31701 | 84.76630 | 35810 ft | 511 kts | 297° |
| 2026-04-23 20:47 | -2.28425 | 84.70361 | 35808 ft | 511 kts | 297° |
| 2026-04-23 20:47 | -2.25135 | 84.64068 | 35806 ft | 511 kts | 297° |
| 2026-04-23 20:48 | -2.21823 | 84.57733 | 35808 ft | 511 kts | 297° |
| 2026-04-23 20:48 | -2.18546 | 84.51465 | 35807 ft | 511 kts | 297° |
| 2026-04-23 20:49 | -2.15255 | 84.45172 | 35806 ft | 511 kts | 297° |
| 2026-04-23 20:49 | -2.11959 | 84.38871 | 35803 ft | 511 kts | 297° |
| 2026-04-23 20:50 | -2.08663 | 84.32568 | 35803 ft | 512 kts | 297° |
| 2026-04-23 20:50 | -2.05910 | 84.27306 | 35807 ft | 512 kts | 298° |
| 2026-04-23 20:51 | -2.03643 | 84.22974 | 35806 ft | 512 kts | 298° |
| 2026-04-23 20:51 | -2.00258 | 84.16719 | 35808 ft | 512 kts | 303° |
| 2026-04-23 20:52 | -1.95995 | 84.11014 | 35807 ft | 512 kts | 309° |
| 2026-04-23 20:52 | -1.91513 | 84.05473 | 35805 ft | 512 kts | 310° |
| 2026-04-23 20:53 | -1.86992 | 83.99947 | 35806 ft | 512 kts | 309° |
| 2026-04-23 20:53 | -1.82489 | 83.94421 | 35804 ft | 512 kts | 309° |
| 2026-04-23 20:54 | -1.78017 | 83.88912 | 35806 ft | 512 kts | 309° |
| 2026-04-23 20:54 | -1.73525 | 83.83374 | 35805 ft | 512 kts | 309° |
| 2026-04-23 20:55 | -1.69030 | 83.77833 | 35809 ft | 513 kts | 309° |
| 2026-04-23 20:55 | -1.64562 | 83.72326 | 35805 ft | 513 kts | 309° |
| 2026-04-23 20:56 | -1.60063 | 83.66783 | 35810 ft | 512 kts | 309° |
| 2026-04-23 20:56 | -1.55573 | 83.61250 | 35810 ft | 512 kts | 309° |
| 2026-04-23 20:57 | -1.51092 | 83.55730 | 35808 ft | 512 kts | 309° |
| 2026-04-23 20:57 | -1.46595 | 83.50189 | 35811 ft | 512 kts | 309° |
| 2026-04-23 20:58 | -1.42128 | 83.44687 | 35811 ft | 511 kts | 309° |
| 2026-04-23 20:58 | -1.37645 | 83.39166 | 35808 ft | 511 kts | 309° |
| 2026-04-23 20:59 | -1.33178 | 83.33663 | 35807 ft | 511 kts | 309° |
| 2026-04-23 20:59 | -1.28718 | 83.28171 | 35807 ft | 511 kts | 309° |
| 2026-04-23 21:00 | -1.24216 | 83.22627 | 35809 ft | 511 kts | 309° |
| 2026-04-23 21:00 | -1.19766 | 83.17148 | 35806 ft | 510 kts | 309° |
| 2026-04-23 21:01 | -1.15297 | 83.11644 | 35804 ft | 510 kts | 309° |
| 2026-04-23 21:01 | -1.10831 | 83.06146 | 35805 ft | 510 kts | 309° |
| 2026-04-23 21:02 | -1.06366 | 83.00648 | 35809 ft | 509 kts | 309° |
| 2026-04-23 21:02 | -1.01909 | 82.95160 | 35804 ft | 509 kts | 309° |
| 2026-04-23 21:03 | -0.97456 | 82.89679 | 35809 ft | 509 kts | 309° |
| 2026-04-23 21:03 | -0.93006 | 82.84200 | 35808 ft | 508 kts | 309° |
| 2026-04-23 21:04 | -0.88548 | 82.78713 | 35807 ft | 508 kts | 309° |
| 2026-04-23 21:04 | -0.84092 | 82.73227 | 35805 ft | 508 kts | 309° |
| 2026-04-23 21:05 | -0.79645 | 82.67753 | 35810 ft | 508 kts | 309° |
| 2026-04-23 21:05 | -0.75166 | 82.62241 | 35808 ft | 508 kts | 309° |
| 2026-04-23 21:06 | -0.70722 | 82.56771 | 35809 ft | 508 kts | 309° |
| 2026-04-23 21:06 | -0.66282 | 82.51306 | 35811 ft | 508 kts | 309° |
| 2026-04-23 21:07 | -0.61824 | 82.45820 | 35808 ft | 508 kts | 309° |
| 2026-04-23 21:07 | -0.57375 | 82.40344 | 35808 ft | 508 kts | 309° |
| 2026-04-23 21:08 | -0.52914 | 82.34854 | 35802 ft | 507 kts | 309° |
| 2026-04-23 21:08 | -0.48493 | 82.29414 | 35802 ft | 507 kts | 309° |
| 2026-04-23 21:09 | -0.44034 | 82.23927 | 35804 ft | 507 kts | 309° |
| 2026-04-23 21:09 | -0.39599 | 82.18469 | 35806 ft | 507 kts | 309° |
| 2026-04-23 21:10 | -0.35140 | 82.12982 | 35811 ft | 507 kts | 309° |
| 2026-04-23 21:10 | -0.30702 | 82.07521 | 35809 ft | 507 kts | 309° |
| 2026-04-23 21:11 | -0.26254 | 82.02048 | 35806 ft | 507 kts | 309° |
| 2026-04-23 21:11 | -0.21838 | 81.96614 | 35809 ft | 507 kts | 309° |
| 2026-04-23 21:12 | -0.17378 | 81.91126 | 35808 ft | 506 kts | 309° |
| 2026-04-23 21:12 | -0.12955 | 81.85684 | 35806 ft | 506 kts | 309° |
| 2026-04-23 21:13 | -0.09254 | 81.81130 | 35810 ft | 506 kts | 309° |
| 2026-04-23 21:13 | -0.04086 | 81.74771 | 35810 ft | 506 kts | 309° |
| 2026-04-23 21:14 | -0.00393 | 81.70227 | 35811 ft | 505 kts | 309° |
| 2026-04-23 21:14 | 0.04027 | 81.64787 | 35809 ft | 505 kts | 309° |
| 2026-04-23 21:15 | 0.08467 | 81.59325 | 35812 ft | 505 kts | 309° |
| 2026-04-23 21:15 | 0.12889 | 81.53883 | 35808 ft | 505 kts | 309° |
| 2026-04-23 21:16 | 0.17315 | 81.48437 | 35811 ft | 505 kts | 309° |
| 2026-04-23 21:16 | 0.21756 | 81.42973 | 35812 ft | 505 kts | 309° |
| 2026-04-23 21:17 | 0.26191 | 81.37516 | 35812 ft | 505 kts | 309° |
| 2026-04-23 21:17 | 0.30617 | 81.32070 | 35814 ft | 505 kts | 309° |
| 2026-04-23 21:18 | 0.35050 | 81.26615 | 35812 ft | 505 kts | 309° |
| 2026-04-23 21:18 | 0.39477 | 81.21167 | 35813 ft | 505 kts | 309° |
| 2026-04-23 21:19 | 0.43903 | 81.15721 | 35812 ft | 506 kts | 309° |
| 2026-04-23 21:19 | 0.48356 | 81.10241 | 35815 ft | 506 kts | 309° |
| 2026-04-23 21:20 | 0.52787 | 81.04788 | 35816 ft | 505 kts | 309° |
| 2026-04-23 21:20 | 0.57194 | 80.99365 | 35813 ft | 505 kts | 309° |
| 2026-04-23 21:21 | 0.61635 | 80.93900 | 35812 ft | 505 kts | 309° |
| 2026-04-23 21:21 | 0.66046 | 80.88471 | 35813 ft | 505 kts | 309° |
| 2026-04-23 21:22 | 0.70483 | 80.83010 | 35812 ft | 505 kts | 309° |
| 2026-04-23 21:22 | 0.74907 | 80.77565 | 35813 ft | 505 kts | 309° |
| 2026-04-23 21:23 | 0.79350 | 80.72096 | 35814 ft | 505 kts | 309° |
| 2026-04-23 21:23 | 0.83784 | 80.66638 | 35813 ft | 505 kts | 309° |
| 2026-04-23 21:24 | 0.88205 | 80.61197 | 35817 ft | 505 kts | 309° |
| 2026-04-23 21:24 | 0.92631 | 80.55748 | 35820 ft | 505 kts | 309° |
| 2026-04-23 21:25 | 0.97063 | 80.50293 | 35817 ft | 505 kts | 309° |
| 2026-04-23 21:25 | 1.01454 | 80.44886 | 35818 ft | 505 kts | 309° |
| 2026-04-23 21:26 | 1.05906 | 80.39405 | 35818 ft | 505 kts | 309° |
| 2026-04-23 21:26 | 1.10313 | 80.33979 | 35820 ft | 505 kts | 309° |
| 2026-04-23 21:27 | 1.14739 | 80.28529 | 35821 ft | 505 kts | 309° |
| 2026-04-23 21:27 | 1.19176 | 80.23066 | 35818 ft | 505 kts | 309° |
| 2026-04-23 21:28 | 1.23599 | 80.17619 | 35816 ft | 505 kts | 309° |
| 2026-04-23 21:28 | 1.28037 | 80.12154 | 35820 ft | 505 kts | 309° |
| 2026-04-23 21:29 | 1.32435 | 80.06737 | 35820 ft | 505 kts | 309° |
| 2026-04-23 21:29 | 1.36882 | 80.01259 | 35818 ft | 504 kts | 309° |
| 2026-04-23 21:30 | 1.41291 | 79.95829 | 35819 ft | 504 kts | 309° |
| 2026-04-23 21:30 | 1.45685 | 79.90416 | 35819 ft | 504 kts | 309° |
| 2026-04-23 21:31 | 1.50092 | 79.84986 | 35816 ft | 504 kts | 309° |
| 2026-04-23 21:31 | 1.54511 | 79.79543 | 35821 ft | 504 kts | 309° |
| 2026-04-23 21:32 | 1.58933 | 79.74095 | 35818 ft | 504 kts | 309° |
| 2026-04-23 21:32 | 1.63340 | 79.68665 | 35822 ft | 504 kts | 309° |
| 2026-04-23 21:33 | 1.67672 | 79.63325 | 35823 ft | 504 kts | 309° |
| 2026-04-23 21:33 | 1.72097 | 79.57873 | 35819 ft | 504 kts | 309° |
| 2026-04-23 21:34 | 1.76518 | 79.52424 | 35818 ft | 504 kts | 309° |
| 2026-04-23 21:34 | 1.80926 | 79.46992 | 35822 ft | 505 kts | 309° |
| 2026-04-23 21:35 | 1.85346 | 79.41543 | 35821 ft | 505 kts | 308° |
| 2026-04-23 21:35 | 1.89764 | 79.36096 | 35823 ft | 505 kts | 309° |
| 2026-04-23 21:36 | 1.96392 | 79.27924 | 35822 ft | 505 kts | 308° |
| 2026-04-23 21:37 | 2.00805 | 79.22483 | 35816 ft | 505 kts | 308° |
| 2026-04-23 21:37 | 2.05226 | 79.17031 | 35818 ft | 505 kts | 308° |
| 2026-04-23 21:38 | 2.09670 | 79.11550 | 35818 ft | 506 kts | 308° |
| 2026-04-23 21:38 | 2.14084 | 79.06106 | 35816 ft | 506 kts | 308° |
| 2026-04-23 21:39 | 2.18514 | 79.00641 | 35818 ft | 506 kts | 308° |
| 2026-04-23 21:39 | 2.22953 | 78.95165 | 35820 ft | 506 kts | 308° |
| 2026-04-23 21:40 | 2.27382 | 78.89701 | 35819 ft | 507 kts | 308° |
| 2026-04-23 21:40 | 2.31825 | 78.84218 | 35819 ft | 507 kts | 308° |
| 2026-04-23 21:41 | 2.36262 | 78.78742 | 35819 ft | 507 kts | 308° |
| 2026-04-23 21:41 | 2.40705 | 78.73259 | 35819 ft | 507 kts | 308° |
| 2026-04-23 21:42 | 2.45139 | 78.67786 | 35823 ft | 508 kts | 308° |
| 2026-04-23 21:42 | 2.49585 | 78.62297 | 35813 ft | 508 kts | 308° |
| 2026-04-23 21:43 | 2.54058 | 78.56774 | 35805 ft | 508 kts | 308° |
| 2026-04-23 21:43 | 2.58494 | 78.51297 | 35821 ft | 508 kts | 308° |
| 2026-04-23 21:44 | 2.62938 | 78.45809 | 35814 ft | 508 kts | 308° |
| 2026-04-23 21:44 | 2.67378 | 78.40326 | 35802 ft | 508 kts | 308° |
| 2026-04-23 21:45 | 2.71833 | 78.34822 | 35819 ft | 508 kts | 308° |
| 2026-04-23 21:45 | 2.76279 | 78.29330 | 35818 ft | 509 kts | 308° |
| 2026-04-23 21:46 | 2.80732 | 78.23827 | 35802 ft | 509 kts | 308° |
| 2026-04-23 21:46 | 2.85208 | 78.18296 | 35805 ft | 509 kts | 308° |
| 2026-04-23 21:47 | 2.89653 | 78.12802 | 35818 ft | 509 kts | 308° |
| 2026-04-23 21:47 | 2.94106 | 78.07298 | 35816 ft | 509 kts | 308° |
| 2026-04-23 21:48 | 2.98551 | 78.01802 | 35828 ft | 509 kts | 308° |
| 2026-04-23 21:48 | 3.00648 | 77.98924 | 36057 ft | 506 kts | 302° |
| 2026-04-23 21:48 | 3.02586 | 77.96018 | 36442 ft | 503 kts | 302° |
| 2026-04-23 21:48 | 3.04487 | 77.93114 | 36776 ft | 501 kts | 301° |
| 2026-04-23 21:49 | 3.06392 | 77.90171 | 37059 ft | 500 kts | 301° |
| 2026-04-23 21:49 | 3.08259 | 77.87275 | 37329 ft | 499 kts | 301° |
| 2026-04-23 21:49 | 3.10150 | 77.84337 | 37583 ft | 499 kts | 301° |
| 2026-04-23 21:49 | 3.12021 | 77.81432 | 37782 ft | 500 kts | 301° |
| 2026-04-23 21:50 | 3.13898 | 77.78521 | 37811 ft | 503 kts | 301° |
| 2026-04-23 21:50 | 3.17721 | 77.72601 | 37812 ft | 503 kts | 301° |
| 2026-04-23 21:51 | 3.21495 | 77.66762 | 37816 ft | 502 kts | 301° |
| 2026-04-23 21:51 | 3.25300 | 77.60874 | 37810 ft | 502 kts | 300° |
| 2026-04-23 21:52 | 3.29086 | 77.55015 | 37809 ft | 502 kts | 300° |
| 2026-04-23 21:52 | 3.32866 | 77.49162 | 37808 ft | 501 kts | 300° |
| 2026-04-23 21:53 | 3.36650 | 77.43303 | 37809 ft | 501 kts | 300° |
| 2026-04-23 21:53 | 3.40435 | 77.37441 | 37813 ft | 501 kts | 300° |
| 2026-04-23 21:54 | 3.44211 | 77.31592 | 37830 ft | 501 kts | 300° |
| 2026-04-23 21:54 | 3.47983 | 77.25749 | 37811 ft | 501 kts | 300° |
| 2026-04-23 21:55 | 3.51753 | 77.19908 | 37808 ft | 501 kts | 300° |
| 2026-04-23 21:55 | 3.55553 | 77.14018 | 37810 ft | 501 kts | 300° |
| 2026-04-23 21:56 | 3.59331 | 77.08163 | 37807 ft | 501 kts | 300° |
| 2026-04-23 21:56 | 3.63100 | 77.02321 | 37807 ft | 501 kts | 300° |
| 2026-04-23 21:57 | 3.66871 | 76.96473 | 37811 ft | 501 kts | 300° |
| 2026-04-23 21:57 | 3.70640 | 76.90628 | 37809 ft | 500 kts | 300° |
| 2026-04-23 21:58 | 3.74406 | 76.84787 | 37829 ft | 500 kts | 300° |
| 2026-04-23 21:58 | 3.78181 | 76.78930 | 37811 ft | 500 kts | 300° |
| 2026-04-23 21:59 | 3.81957 | 76.73070 | 37808 ft | 500 kts | 300° |
| 2026-04-23 21:59 | 3.83221 | 76.71110 | 37811 ft | 500 kts | 300° |
| 2026-04-23 22:00 | 3.91398 | 76.58417 | 37810 ft | 500 kts | 300° |
| 2026-04-23 22:00 | 3.95131 | 76.52621 | 37815 ft | 500 kts | 300° |
| 2026-04-23 22:01 | 3.98882 | 76.46795 | 37804 ft | 499 kts | 300° |
| 2026-04-23 22:01 | 4.02024 | 76.41914 | 37806 ft | 500 kts | 300° |
| 2026-04-23 22:02 | 4.06407 | 76.35105 | 37809 ft | 499 kts | 300° |
| 2026-04-23 22:02 | 4.10164 | 76.29266 | 37820 ft | 499 kts | 300° |
| 2026-04-23 22:03 | 4.13930 | 76.23413 | 37809 ft | 499 kts | 300° |
| 2026-04-23 22:03 | 4.16426 | 76.19533 | 37810 ft | 499 kts | 300° |